<?xml version="1.0" encoding="UTF-8" standalone="no" ?>
<gpx xmlns="http://www.topografix.com/GPX/1/1" xmlns:xsi="http://www.w3.org/2001/XMLSchema-instance" xsi:schemaLocation="http://www.topografix.com/GPX/1/1 http://www.topografix.com/GPX/1/1/gpx.xsd" version="1.1" creator="VisuGPX - https://www.visugpx.com">
  <metadata>
    <name>Pertuis EST VTT</name>
    <desc><![CDATA[decouverte des chemins. Beaucoup de zones grillagés]]></desc>
  </metadata>
  <trk>
    <name><![CDATA[VTT Pertuis Est]]></name>
    <desc><![CDATA[Une première partie très jolie]]></desc>
    <trkseg>
      <trkpt lat="43.68585" lon="5.51311">
        <ele>219</ele>
        <time>2010-12-12T14:34:08.000Z</time>
      </trkpt>
      <trkpt lat="43.68578" lon="5.51325">
        <ele>219.19999694824</ele>
        <time>2010-12-12T14:34:10.000Z</time>
      </trkpt>
      <trkpt lat="43.68564" lon="5.51353">
        <ele>219.80000305176</ele>
        <time>2010-12-12T14:34:14.000Z</time>
      </trkpt>
      <trkpt lat="43.68554" lon="5.51374">
        <ele>220.19999694824</ele>
        <time>2010-12-12T14:34:17.000Z</time>
      </trkpt>
      <trkpt lat="43.68524" lon="5.51445">
        <ele>220.39999389648</ele>
        <time>2010-12-12T14:34:27.000Z</time>
      </trkpt>
      <trkpt lat="43.68482" lon="5.51562">
        <ele>222.80000305176</ele>
        <time>2010-12-12T14:34:43.000Z</time>
      </trkpt>
      <trkpt lat="43.68449" lon="5.5165">
        <ele>222.60000610352</ele>
        <time>2010-12-12T14:34:55.000Z</time>
      </trkpt>
      <trkpt lat="43.6843" lon="5.51702">
        <ele>221.60000610352</ele>
        <time>2010-12-12T14:35:02.000Z</time>
      </trkpt>
      <trkpt lat="43.68429" lon="5.51685">
        <ele>221.39999389648</ele>
        <time>2010-12-12T14:35:09.000Z</time>
      </trkpt>
      <trkpt lat="43.68424" lon="5.51716">
        <ele>221.19999694824</ele>
        <time>2010-12-12T14:35:14.000Z</time>
      </trkpt>
      <trkpt lat="43.68405" lon="5.51786">
        <ele>221</ele>
        <time>2010-12-12T14:35:23.000Z</time>
      </trkpt>
      <trkpt lat="43.68401" lon="5.51813">
        <ele>221.60000610352</ele>
        <time>2010-12-12T14:35:27.000Z</time>
      </trkpt>
      <trkpt lat="43.68386" lon="5.5185">
        <ele>221.80000305176</ele>
        <time>2010-12-12T14:35:31.000Z</time>
      </trkpt>
      <trkpt lat="43.68378" lon="5.51882">
        <ele>222</ele>
        <time>2010-12-12T14:35:35.000Z</time>
      </trkpt>
      <trkpt lat="43.68371" lon="5.51905">
        <ele>222</ele>
        <time>2010-12-12T14:35:38.000Z</time>
      </trkpt>
      <trkpt lat="43.68353" lon="5.51957">
        <ele>222.39999389648</ele>
        <time>2010-12-12T14:35:45.000Z</time>
      </trkpt>
      <trkpt lat="43.68344" lon="5.51979">
        <ele>222.19999694824</ele>
        <time>2010-12-12T14:35:48.000Z</time>
      </trkpt>
      <trkpt lat="43.68319" lon="5.52041">
        <ele>220.80000305176</ele>
        <time>2010-12-12T14:35:56.000Z</time>
      </trkpt>
      <trkpt lat="43.6827" lon="5.52159">
        <ele>217.80000305176</ele>
        <time>2010-12-12T14:36:11.000Z</time>
      </trkpt>
      <trkpt lat="43.68267" lon="5.52167">
        <ele>217.60000610352</ele>
        <time>2010-12-12T14:36:12.000Z</time>
      </trkpt>
      <trkpt lat="43.6826" lon="5.52192">
        <ele>217</ele>
        <time>2010-12-12T14:36:15.000Z</time>
      </trkpt>
      <trkpt lat="43.68226" lon="5.52283">
        <ele>214</ele>
        <time>2010-12-12T14:36:26.000Z</time>
      </trkpt>
      <trkpt lat="43.68222" lon="5.52363">
        <ele>213</ele>
        <time>2010-12-12T14:36:34.000Z</time>
      </trkpt>
      <trkpt lat="43.68227" lon="5.52415">
        <ele>212.60000610352</ele>
        <time>2010-12-12T14:36:39.000Z</time>
      </trkpt>
      <trkpt lat="43.68223" lon="5.52454">
        <ele>212</ele>
        <time>2010-12-12T14:36:43.000Z</time>
      </trkpt>
      <trkpt lat="43.68184" lon="5.52545">
        <ele>210.60000610352</ele>
        <time>2010-12-12T14:36:54.000Z</time>
      </trkpt>
      <trkpt lat="43.6816" lon="5.52615">
        <ele>210.39999389648</ele>
        <time>2010-12-12T14:37:02.000Z</time>
      </trkpt>
      <trkpt lat="43.68152" lon="5.52642">
        <ele>210.60000610352</ele>
        <time>2010-12-12T14:37:06.000Z</time>
      </trkpt>
      <trkpt lat="43.68136" lon="5.5268">
        <ele>209.80000305176</ele>
        <time>2010-12-12T14:37:11.000Z</time>
      </trkpt>
      <trkpt lat="43.68091" lon="5.52776">
        <ele>209.19999694824</ele>
        <time>2010-12-12T14:37:22.000Z</time>
      </trkpt>
      <trkpt lat="43.68071" lon="5.52827">
        <ele>210</ele>
        <time>2010-12-12T14:37:28.000Z</time>
      </trkpt>
      <trkpt lat="43.68064" lon="5.52843">
        <ele>209.60000610352</ele>
        <time>2010-12-12T14:37:30.000Z</time>
      </trkpt>
      <trkpt lat="43.68043" lon="5.52974">
        <ele>210.39999389648</ele>
        <time>2010-12-12T14:37:43.000Z</time>
      </trkpt>
      <trkpt lat="43.68023" lon="5.5307">
        <ele>209.80000305176</ele>
        <time>2010-12-12T14:37:55.000Z</time>
      </trkpt>
      <trkpt lat="43.68006" lon="5.53113">
        <ele>208.80000305176</ele>
        <time>2010-12-12T14:38:01.000Z</time>
      </trkpt>
      <trkpt lat="43.67991" lon="5.53137">
        <ele>208.80000305176</ele>
        <time>2010-12-12T14:38:05.000Z</time>
      </trkpt>
      <trkpt lat="43.6798" lon="5.53152">
        <ele>208.80000305176</ele>
        <time>2010-12-12T14:38:08.000Z</time>
      </trkpt>
      <trkpt lat="43.67964" lon="5.5317">
        <ele>208.19999694824</ele>
        <time>2010-12-12T14:38:12.000Z</time>
      </trkpt>
      <trkpt lat="43.67903" lon="5.5324">
        <ele>206.60000610352</ele>
        <time>2010-12-12T14:38:26.000Z</time>
      </trkpt>
      <trkpt lat="43.6789" lon="5.53252">
        <ele>206.80000305176</ele>
        <time>2010-12-12T14:38:29.000Z</time>
      </trkpt>
      <trkpt lat="43.67824" lon="5.53304">
        <ele>209.19999694824</ele>
        <time>2010-12-12T14:38:42.000Z</time>
      </trkpt>
      <trkpt lat="43.67807" lon="5.53317">
        <ele>208.39999389648</ele>
        <time>2010-12-12T14:38:45.000Z</time>
      </trkpt>
      <trkpt lat="43.6779" lon="5.5333">
        <ele>206.80000305176</ele>
        <time>2010-12-12T14:38:48.000Z</time>
      </trkpt>
      <trkpt lat="43.67749" lon="5.53376">
        <ele>205.39999389648</ele>
        <time>2010-12-12T14:38:56.000Z</time>
      </trkpt>
      <trkpt lat="43.67717" lon="5.53415">
        <ele>206.19999694824</ele>
        <time>2010-12-12T14:39:03.000Z</time>
      </trkpt>
      <trkpt lat="43.67703" lon="5.53435">
        <ele>206</ele>
        <time>2010-12-12T14:39:06.000Z</time>
      </trkpt>
      <trkpt lat="43.67669" lon="5.53482">
        <ele>202</ele>
        <time>2010-12-12T14:39:14.000Z</time>
      </trkpt>
      <trkpt lat="43.67614" lon="5.53551">
        <ele>200.39999389648</ele>
        <time>2010-12-12T14:39:26.000Z</time>
      </trkpt>
      <trkpt lat="43.67531" lon="5.53653">
        <ele>197.60000610352</ele>
        <time>2010-12-12T14:39:44.000Z</time>
      </trkpt>
      <trkpt lat="43.67517" lon="5.53669">
        <ele>197.80000305176</ele>
        <time>2010-12-12T14:39:47.000Z</time>
      </trkpt>
      <trkpt lat="43.67459" lon="5.53731">
        <ele>197.80000305176</ele>
        <time>2010-12-12T14:39:59.000Z</time>
      </trkpt>
      <trkpt lat="43.67445" lon="5.53741">
        <ele>197.80000305176</ele>
        <time>2010-12-12T14:40:02.000Z</time>
      </trkpt>
      <trkpt lat="43.67393" lon="5.53796">
        <ele>198.80000305176</ele>
        <time>2010-12-12T14:40:14.000Z</time>
      </trkpt>
      <trkpt lat="43.67371" lon="5.53829">
        <ele>199.39999389648</ele>
        <time>2010-12-12T14:40:20.000Z</time>
      </trkpt>
      <trkpt lat="43.67325" lon="5.53948">
        <ele>199.60000610352</ele>
        <time>2010-12-12T14:40:38.000Z</time>
      </trkpt>
      <trkpt lat="43.67279" lon="5.54082">
        <ele>200.60000610352</ele>
        <time>2010-12-12T14:40:56.000Z</time>
      </trkpt>
      <trkpt lat="43.67261" lon="5.54131">
        <ele>199.60000610352</ele>
        <time>2010-12-12T14:41:03.000Z</time>
      </trkpt>
      <trkpt lat="43.67253" lon="5.54172">
        <ele>199</ele>
        <time>2010-12-12T14:41:09.000Z</time>
      </trkpt>
      <trkpt lat="43.67205" lon="5.54282">
        <ele>202</ele>
        <time>2010-12-12T14:41:24.000Z</time>
      </trkpt>
      <trkpt lat="43.6719" lon="5.54325">
        <ele>202.19999694824</ele>
        <time>2010-12-12T14:41:30.000Z</time>
      </trkpt>
      <trkpt lat="43.67172" lon="5.54419">
        <ele>203</ele>
        <time>2010-12-12T14:41:43.000Z</time>
      </trkpt>
      <trkpt lat="43.67146" lon="5.54535">
        <ele>202.80000305176</ele>
        <time>2010-12-12T14:41:58.000Z</time>
      </trkpt>
      <trkpt lat="43.67142" lon="5.54551">
        <ele>202.80000305176</ele>
        <time>2010-12-12T14:42:00.000Z</time>
      </trkpt>
      <trkpt lat="43.67139" lon="5.54585">
        <ele>202.60000610352</ele>
        <time>2010-12-12T14:42:04.000Z</time>
      </trkpt>
      <trkpt lat="43.67142" lon="5.54628">
        <ele>203.39999389648</ele>
        <time>2010-12-12T14:42:09.000Z</time>
      </trkpt>
      <trkpt lat="43.67147" lon="5.54661">
        <ele>204</ele>
        <time>2010-12-12T14:42:13.000Z</time>
      </trkpt>
      <trkpt lat="43.67205" lon="5.54779">
        <ele>207.60000610352</ele>
        <time>2010-12-12T14:42:29.000Z</time>
      </trkpt>
      <trkpt lat="43.67212" lon="5.54792">
        <ele>208.80000305176</ele>
        <time>2010-12-12T14:42:31.000Z</time>
      </trkpt>
      <trkpt lat="43.67252" lon="5.54878">
        <ele>213.19999694824</ele>
        <time>2010-12-12T14:42:43.000Z</time>
      </trkpt>
      <trkpt lat="43.67276" lon="5.55019">
        <ele>211.80000305176</ele>
        <time>2010-12-12T14:43:01.000Z</time>
      </trkpt>
      <trkpt lat="43.6728" lon="5.55064">
        <ele>212.60000610352</ele>
        <time>2010-12-12T14:43:07.000Z</time>
      </trkpt>
      <trkpt lat="43.67283" lon="5.55101">
        <ele>213.60000610352</ele>
        <time>2010-12-12T14:43:12.000Z</time>
      </trkpt>
      <trkpt lat="43.67283" lon="5.55131">
        <ele>213.80000305176</ele>
        <time>2010-12-12T14:43:16.000Z</time>
      </trkpt>
      <trkpt lat="43.67282" lon="5.55161">
        <ele>214</ele>
        <time>2010-12-12T14:43:20.000Z</time>
      </trkpt>
      <trkpt lat="43.67275" lon="5.55197">
        <ele>212.39999389648</ele>
        <time>2010-12-12T14:43:24.000Z</time>
      </trkpt>
      <trkpt lat="43.67271" lon="5.55249">
        <ele>211.60000610352</ele>
        <time>2010-12-12T14:43:31.000Z</time>
      </trkpt>
      <trkpt lat="43.67267" lon="5.55302">
        <ele>212.39999389648</ele>
        <time>2010-12-12T14:43:38.000Z</time>
      </trkpt>
      <trkpt lat="43.67263" lon="5.55326">
        <ele>212.39999389648</ele>
        <time>2010-12-12T14:43:41.000Z</time>
      </trkpt>
      <trkpt lat="43.67258" lon="5.55384">
        <ele>214.19999694824</ele>
        <time>2010-12-12T14:43:49.000Z</time>
      </trkpt>
      <trkpt lat="43.67256" lon="5.55398">
        <ele>214.19999694824</ele>
        <time>2010-12-12T14:43:51.000Z</time>
      </trkpt>
      <trkpt lat="43.67219" lon="5.55478">
        <ele>213.80000305176</ele>
        <time>2010-12-12T14:44:05.000Z</time>
      </trkpt>
      <trkpt lat="43.67209" lon="5.55504">
        <ele>213.80000305176</ele>
        <time>2010-12-12T14:44:10.000Z</time>
      </trkpt>
      <trkpt lat="43.67198" lon="5.55527">
        <ele>214.80000305176</ele>
        <time>2010-12-12T14:44:15.000Z</time>
      </trkpt>
      <trkpt lat="43.67195" lon="5.55539">
        <ele>215.39999389648</ele>
        <time>2010-12-12T14:44:18.000Z</time>
      </trkpt>
      <trkpt lat="43.67178" lon="5.55576">
        <ele>215</ele>
        <time>2010-12-12T14:44:25.000Z</time>
      </trkpt>
      <trkpt lat="43.67154" lon="5.55628">
        <ele>216.39999389648</ele>
        <time>2010-12-12T14:44:36.000Z</time>
      </trkpt>
      <trkpt lat="43.67129" lon="5.55662">
        <ele>216.60000610352</ele>
        <time>2010-12-12T14:44:47.000Z</time>
      </trkpt>
      <trkpt lat="43.67118" lon="5.55709">
        <ele>216</ele>
        <time>2010-12-12T14:44:56.000Z</time>
      </trkpt>
      <trkpt lat="43.67121" lon="5.55736">
        <ele>216.80000305176</ele>
        <time>2010-12-12T14:45:01.000Z</time>
      </trkpt>
      <trkpt lat="43.67123" lon="5.55754">
        <ele>217.19999694824</ele>
        <time>2010-12-12T14:45:04.000Z</time>
      </trkpt>
      <trkpt lat="43.67127" lon="5.55774">
        <ele>217.60000610352</ele>
        <time>2010-12-12T14:45:07.000Z</time>
      </trkpt>
      <trkpt lat="43.67128" lon="5.55796">
        <ele>217.60000610352</ele>
        <time>2010-12-12T14:45:10.000Z</time>
      </trkpt>
      <trkpt lat="43.67137" lon="5.55827">
        <ele>218</ele>
        <time>2010-12-12T14:45:17.000Z</time>
      </trkpt>
      <trkpt lat="43.67137" lon="5.55836">
        <ele>218.19999694824</ele>
        <time>2010-12-12T14:45:21.000Z</time>
      </trkpt>
      <trkpt lat="43.67134" lon="5.55845">
        <ele>219.39999389648</ele>
        <time>2010-12-12T14:45:25.000Z</time>
      </trkpt>
      <trkpt lat="43.67116" lon="5.55868">
        <ele>221.60000610352</ele>
        <time>2010-12-12T14:45:37.000Z</time>
      </trkpt>
      <trkpt lat="43.67106" lon="5.55877">
        <ele>222.39999389648</ele>
        <time>2010-12-12T14:45:46.000Z</time>
      </trkpt>
      <trkpt lat="43.67105" lon="5.55879">
        <ele>222.60000610352</ele>
        <time>2010-12-12T14:45:47.000Z</time>
      </trkpt>
      <trkpt lat="43.67091" lon="5.55898">
        <ele>224.19999694824</ele>
        <time>2010-12-12T14:45:56.000Z</time>
      </trkpt>
      <trkpt lat="43.67078" lon="5.5593">
        <ele>226.80000305176</ele>
        <time>2010-12-12T14:46:07.000Z</time>
      </trkpt>
      <trkpt lat="43.67075" lon="5.55942">
        <ele>228</ele>
        <time>2010-12-12T14:46:11.000Z</time>
      </trkpt>
      <trkpt lat="43.67075" lon="5.55948">
        <ele>228.80000305176</ele>
        <time>2010-12-12T14:46:13.000Z</time>
      </trkpt>
      <trkpt lat="43.67069" lon="5.55973">
        <ele>231.60000610352</ele>
        <time>2010-12-12T14:46:22.000Z</time>
      </trkpt>
      <trkpt lat="43.67066" lon="5.56">
        <ele>234.80000305176</ele>
        <time>2010-12-12T14:46:32.000Z</time>
      </trkpt>
      <trkpt lat="43.67068" lon="5.56006">
        <ele>235.80000305176</ele>
        <time>2010-12-12T14:46:34.000Z</time>
      </trkpt>
      <trkpt lat="43.67072" lon="5.56011">
        <ele>236.80000305176</ele>
        <time>2010-12-12T14:46:37.000Z</time>
      </trkpt>
      <trkpt lat="43.67083" lon="5.56005">
        <ele>238.19999694824</ele>
        <time>2010-12-12T14:46:44.000Z</time>
      </trkpt>
      <trkpt lat="43.67098" lon="5.55995">
        <ele>238.60000610352</ele>
        <time>2010-12-12T14:46:54.000Z</time>
      </trkpt>
      <trkpt lat="43.67115" lon="5.55998">
        <ele>240.60000610352</ele>
        <time>2010-12-12T14:47:01.000Z</time>
      </trkpt>
      <trkpt lat="43.67145" lon="5.5599">
        <ele>242.19999694824</ele>
        <time>2010-12-12T14:47:14.000Z</time>
      </trkpt>
      <trkpt lat="43.6715" lon="5.55989">
        <ele>242.39999389648</ele>
        <time>2010-12-12T14:47:16.000Z</time>
      </trkpt>
      <trkpt lat="43.67175" lon="5.55988">
        <ele>243.60000610352</ele>
        <time>2010-12-12T14:47:27.000Z</time>
      </trkpt>
      <trkpt lat="43.67189" lon="5.55991">
        <ele>243.19999694824</ele>
        <time>2010-12-12T14:47:34.000Z</time>
      </trkpt>
      <trkpt lat="43.67194" lon="5.55995">
        <ele>243.80000305176</ele>
        <time>2010-12-12T14:47:38.000Z</time>
      </trkpt>
      <trkpt lat="43.67197" lon="5.56003">
        <ele>245</ele>
        <time>2010-12-12T14:47:44.000Z</time>
      </trkpt>
      <trkpt lat="43.67196" lon="5.56005">
        <ele>245.39999389648</ele>
        <time>2010-12-12T14:48:07.000Z</time>
      </trkpt>
      <trkpt lat="43.67195" lon="5.56005">
        <ele>245.39999389648</ele>
        <time>2010-12-12T14:48:14.000Z</time>
      </trkpt>
      <trkpt lat="43.67196" lon="5.55994">
        <ele>243.39999389648</ele>
        <time>2010-12-12T14:48:22.000Z</time>
      </trkpt>
      <trkpt lat="43.67196" lon="5.55984">
        <ele>241.80000305176</ele>
        <time>2010-12-12T14:48:26.000Z</time>
      </trkpt>
      <trkpt lat="43.6721" lon="5.55946">
        <ele>234.39999389648</ele>
        <time>2010-12-12T14:48:32.000Z</time>
      </trkpt>
      <trkpt lat="43.67214" lon="5.55932">
        <ele>231.60000610352</ele>
        <time>2010-12-12T14:48:39.000Z</time>
      </trkpt>
      <trkpt lat="43.67221" lon="5.55903">
        <ele>227.19999694824</ele>
        <time>2010-12-12T14:48:48.000Z</time>
      </trkpt>
      <trkpt lat="43.67237" lon="5.55883">
        <ele>224.80000305176</ele>
        <time>2010-12-12T14:48:54.000Z</time>
      </trkpt>
      <trkpt lat="43.67241" lon="5.55882">
        <ele>224.60000610352</ele>
        <time>2010-12-12T14:48:55.000Z</time>
      </trkpt>
      <trkpt lat="43.67255" lon="5.55878">
        <ele>224.19999694824</ele>
        <time>2010-12-12T14:49:00.000Z</time>
      </trkpt>
      <trkpt lat="43.67268" lon="5.55877">
        <ele>224.19999694824</ele>
        <time>2010-12-12T14:49:05.000Z</time>
      </trkpt>
      <trkpt lat="43.67281" lon="5.55883">
        <ele>224.80000305176</ele>
        <time>2010-12-12T14:49:12.000Z</time>
      </trkpt>
      <trkpt lat="43.67301" lon="5.55887">
        <ele>225</ele>
        <time>2010-12-12T14:49:21.000Z</time>
      </trkpt>
      <trkpt lat="43.67329" lon="5.55894">
        <ele>225.39999389648</ele>
        <time>2010-12-12T14:49:30.000Z</time>
      </trkpt>
      <trkpt lat="43.67332" lon="5.55896">
        <ele>225.39999389648</ele>
        <time>2010-12-12T14:49:31.000Z</time>
      </trkpt>
      <trkpt lat="43.67345" lon="5.55898">
        <ele>225.80000305176</ele>
        <time>2010-12-12T14:49:36.000Z</time>
      </trkpt>
      <trkpt lat="43.67351" lon="5.559">
        <ele>225.80000305176</ele>
        <time>2010-12-12T14:49:39.000Z</time>
      </trkpt>
      <trkpt lat="43.67374" lon="5.55902">
        <ele>226.39999389648</ele>
        <time>2010-12-12T14:49:49.000Z</time>
      </trkpt>
      <trkpt lat="43.67385" lon="5.55906">
        <ele>226.60000610352</ele>
        <time>2010-12-12T14:49:54.000Z</time>
      </trkpt>
      <trkpt lat="43.67411" lon="5.55911">
        <ele>227</ele>
        <time>2010-12-12T14:50:05.000Z</time>
      </trkpt>
      <trkpt lat="43.67424" lon="5.55915">
        <ele>226.39999389648</ele>
        <time>2010-12-12T14:50:10.000Z</time>
      </trkpt>
      <trkpt lat="43.67432" lon="5.55918">
        <ele>226</ele>
        <time>2010-12-12T14:50:14.000Z</time>
      </trkpt>
      <trkpt lat="43.6744" lon="5.5592">
        <ele>225.80000305176</ele>
        <time>2010-12-12T14:50:18.000Z</time>
      </trkpt>
      <trkpt lat="43.67461" lon="5.55943">
        <ele>228.60000610352</ele>
        <time>2010-12-12T14:50:28.000Z</time>
      </trkpt>
      <trkpt lat="43.67466" lon="5.55953">
        <ele>230</ele>
        <time>2010-12-12T14:50:33.000Z</time>
      </trkpt>
      <trkpt lat="43.67485" lon="5.55966">
        <ele>230.60000610352</ele>
        <time>2010-12-12T14:50:43.000Z</time>
      </trkpt>
      <trkpt lat="43.67508" lon="5.55967">
        <ele>229.39999389648</ele>
        <time>2010-12-12T14:50:51.000Z</time>
      </trkpt>
      <trkpt lat="43.67517" lon="5.55965">
        <ele>228.80000305176</ele>
        <time>2010-12-12T14:50:53.000Z</time>
      </trkpt>
      <trkpt lat="43.67545" lon="5.55961">
        <ele>228.19999694824</ele>
        <time>2010-12-12T14:51:00.000Z</time>
      </trkpt>
      <trkpt lat="43.67554" lon="5.55961">
        <ele>228.19999694824</ele>
        <time>2010-12-12T14:51:04.000Z</time>
      </trkpt>
      <trkpt lat="43.67566" lon="5.55964">
        <ele>228.39999389648</ele>
        <time>2010-12-12T14:51:08.000Z</time>
      </trkpt>
      <trkpt lat="43.67587" lon="5.55973">
        <ele>229</ele>
        <time>2010-12-12T14:51:15.000Z</time>
      </trkpt>
      <trkpt lat="43.67593" lon="5.5598">
        <ele>229.60000610352</ele>
        <time>2010-12-12T14:51:31.000Z</time>
      </trkpt>
      <trkpt lat="43.67593" lon="5.5598">
        <ele>229.60000610352</ele>
        <time>2010-12-12T14:51:36.000Z</time>
      </trkpt>
      <trkpt lat="43.67607" lon="5.56014">
        <ele>232.60000610352</ele>
        <time>2010-12-12T14:51:46.000Z</time>
      </trkpt>
      <trkpt lat="43.67628" lon="5.56027">
        <ele>233.80000305176</ele>
        <time>2010-12-12T14:51:53.000Z</time>
      </trkpt>
      <trkpt lat="43.67658" lon="5.56046">
        <ele>234.80000305176</ele>
        <time>2010-12-12T14:52:03.000Z</time>
      </trkpt>
      <trkpt lat="43.67683" lon="5.56067">
        <ele>236.80000305176</ele>
        <time>2010-12-12T14:52:11.000Z</time>
      </trkpt>
      <trkpt lat="43.67707" lon="5.56091">
        <ele>238.39999389648</ele>
        <time>2010-12-12T14:52:19.000Z</time>
      </trkpt>
      <trkpt lat="43.67715" lon="5.56095">
        <ele>238.60000610352</ele>
        <time>2010-12-12T14:52:22.000Z</time>
      </trkpt>
      <trkpt lat="43.67723" lon="5.56105">
        <ele>239.60000610352</ele>
        <time>2010-12-12T14:52:25.000Z</time>
      </trkpt>
      <trkpt lat="43.67751" lon="5.56126">
        <ele>241.60000610352</ele>
        <time>2010-12-12T14:52:33.000Z</time>
      </trkpt>
      <trkpt lat="43.67763" lon="5.56134">
        <ele>242.60000610352</ele>
        <time>2010-12-12T14:52:36.000Z</time>
      </trkpt>
      <trkpt lat="43.67783" lon="5.56148">
        <ele>243.19999694824</ele>
        <time>2010-12-12T14:52:46.000Z</time>
      </trkpt>
      <trkpt lat="43.67813" lon="5.56174">
        <ele>241.80000305176</ele>
        <time>2010-12-12T14:52:58.000Z</time>
      </trkpt>
      <trkpt lat="43.67853" lon="5.56208">
        <ele>242.60000610352</ele>
        <time>2010-12-12T14:53:11.000Z</time>
      </trkpt>
      <trkpt lat="43.67868" lon="5.5622">
        <ele>242.60000610352</ele>
        <time>2010-12-12T14:53:19.000Z</time>
      </trkpt>
      <trkpt lat="43.67884" lon="5.5622">
        <ele>241.19999694824</ele>
        <time>2010-12-12T14:53:26.000Z</time>
      </trkpt>
      <trkpt lat="43.67902" lon="5.56226">
        <ele>240</ele>
        <time>2010-12-12T14:53:31.000Z</time>
      </trkpt>
      <trkpt lat="43.67911" lon="5.56217">
        <ele>239</ele>
        <time>2010-12-12T14:53:35.000Z</time>
      </trkpt>
      <trkpt lat="43.67933" lon="5.56205">
        <ele>239.60000610352</ele>
        <time>2010-12-12T14:53:43.000Z</time>
      </trkpt>
      <trkpt lat="43.67939" lon="5.56207">
        <ele>240</ele>
        <time>2010-12-12T14:53:47.000Z</time>
      </trkpt>
      <trkpt lat="43.67957" lon="5.56229">
        <ele>240.39999389648</ele>
        <time>2010-12-12T14:53:59.000Z</time>
      </trkpt>
      <trkpt lat="43.67975" lon="5.5625">
        <ele>239.60000610352</ele>
        <time>2010-12-12T14:54:07.000Z</time>
      </trkpt>
      <trkpt lat="43.67992" lon="5.56261">
        <ele>240.19999694824</ele>
        <time>2010-12-12T14:54:20.000Z</time>
      </trkpt>
      <trkpt lat="43.68001" lon="5.56269">
        <ele>240.39999389648</ele>
        <time>2010-12-12T14:54:57.000Z</time>
      </trkpt>
      <trkpt lat="43.68021" lon="5.56262">
        <ele>240.60000610352</ele>
        <time>2010-12-12T14:55:06.000Z</time>
      </trkpt>
      <trkpt lat="43.68031" lon="5.56257">
        <ele>240.60000610352</ele>
        <time>2010-12-12T14:55:10.000Z</time>
      </trkpt>
      <trkpt lat="43.68054" lon="5.56246">
        <ele>241.19999694824</ele>
        <time>2010-12-12T14:55:22.000Z</time>
      </trkpt>
      <trkpt lat="43.68072" lon="5.56238">
        <ele>242.39999389648</ele>
        <time>2010-12-12T14:55:33.000Z</time>
      </trkpt>
      <trkpt lat="43.6807" lon="5.56239">
        <ele>242.19999694824</ele>
        <time>2010-12-12T14:55:54.000Z</time>
      </trkpt>
      <trkpt lat="43.68079" lon="5.5623">
        <ele>243.80000305176</ele>
        <time>2010-12-12T14:56:02.000Z</time>
      </trkpt>
      <trkpt lat="43.68092" lon="5.56196">
        <ele>249</ele>
        <time>2010-12-12T14:56:15.000Z</time>
      </trkpt>
      <trkpt lat="43.68093" lon="5.56193">
        <ele>249.39999389648</ele>
        <time>2010-12-12T14:56:16.000Z</time>
      </trkpt>
      <trkpt lat="43.68099" lon="5.56182">
        <ele>251.19999694824</ele>
        <time>2010-12-12T14:56:26.000Z</time>
      </trkpt>
      <trkpt lat="43.68104" lon="5.56184">
        <ele>251</ele>
        <time>2010-12-12T14:56:33.000Z</time>
      </trkpt>
      <trkpt lat="43.6811" lon="5.56179">
        <ele>251.80000305176</ele>
        <time>2010-12-12T14:56:38.000Z</time>
      </trkpt>
      <trkpt lat="43.68112" lon="5.56175">
        <ele>252.39999389648</ele>
        <time>2010-12-12T14:56:52.000Z</time>
      </trkpt>
      <trkpt lat="43.68112" lon="5.56176">
        <ele>252.39999389648</ele>
        <time>2010-12-12T14:57:20.000Z</time>
      </trkpt>
      <trkpt lat="43.68108" lon="5.56178">
        <ele>252</ele>
        <time>2010-12-12T14:57:24.000Z</time>
      </trkpt>
      <trkpt lat="43.68104" lon="5.56179">
        <ele>251.80000305176</ele>
        <time>2010-12-12T14:57:26.000Z</time>
      </trkpt>
      <trkpt lat="43.68095" lon="5.56159">
        <ele>254</ele>
        <time>2010-12-12T14:57:35.000Z</time>
      </trkpt>
      <trkpt lat="43.68095" lon="5.56154">
        <ele>254.80000305176</ele>
        <time>2010-12-12T14:57:37.000Z</time>
      </trkpt>
      <trkpt lat="43.68099" lon="5.56105">
        <ele>261</ele>
        <time>2010-12-12T14:57:52.000Z</time>
      </trkpt>
      <trkpt lat="43.68102" lon="5.56074">
        <ele>264.20001220703</ele>
        <time>2010-12-12T14:58:05.000Z</time>
      </trkpt>
      <trkpt lat="43.68104" lon="5.56069">
        <ele>264.39999389648</ele>
        <time>2010-12-12T14:58:07.000Z</time>
      </trkpt>
      <trkpt lat="43.68106" lon="5.56062">
        <ele>265</ele>
        <time>2010-12-12T14:58:10.000Z</time>
      </trkpt>
      <trkpt lat="43.6811" lon="5.56054">
        <ele>265.60000610352</ele>
        <time>2010-12-12T14:58:15.000Z</time>
      </trkpt>
      <trkpt lat="43.68127" lon="5.56037">
        <ele>267.60000610352</ele>
        <time>2010-12-12T14:58:29.000Z</time>
      </trkpt>
      <trkpt lat="43.68141" lon="5.56036">
        <ele>268.60000610352</ele>
        <time>2010-12-12T14:58:39.000Z</time>
      </trkpt>
      <trkpt lat="43.68148" lon="5.56054">
        <ele>267.79998779297</ele>
        <time>2010-12-12T14:58:49.000Z</time>
      </trkpt>
      <trkpt lat="43.68153" lon="5.56088">
        <ele>265.60000610352</ele>
        <time>2010-12-12T14:59:01.000Z</time>
      </trkpt>
      <trkpt lat="43.68155" lon="5.5609">
        <ele>265.39999389648</ele>
        <time>2010-12-12T14:59:02.000Z</time>
      </trkpt>
      <trkpt lat="43.68181" lon="5.56094">
        <ele>265.20001220703</ele>
        <time>2010-12-12T14:59:13.000Z</time>
      </trkpt>
      <trkpt lat="43.68227" lon="5.56089">
        <ele>266</ele>
        <time>2010-12-12T14:59:23.000Z</time>
      </trkpt>
      <trkpt lat="43.68255" lon="5.56079">
        <ele>267.79998779297</ele>
        <time>2010-12-12T14:59:31.000Z</time>
      </trkpt>
      <trkpt lat="43.68271" lon="5.56068">
        <ele>270.20001220703</ele>
        <time>2010-12-12T14:59:36.000Z</time>
      </trkpt>
      <trkpt lat="43.6828" lon="5.56065">
        <ele>270.79998779297</ele>
        <time>2010-12-12T14:59:38.000Z</time>
      </trkpt>
      <trkpt lat="43.68306" lon="5.56058">
        <ele>272.39999389648</ele>
        <time>2010-12-12T14:59:45.000Z</time>
      </trkpt>
      <trkpt lat="43.68309" lon="5.56058">
        <ele>272.60000610352</ele>
        <time>2010-12-12T14:59:46.000Z</time>
      </trkpt>
      <trkpt lat="43.68319" lon="5.56061">
        <ele>272.20001220703</ele>
        <time>2010-12-12T14:59:50.000Z</time>
      </trkpt>
      <trkpt lat="43.68331" lon="5.56069">
        <ele>271.60000610352</ele>
        <time>2010-12-12T14:59:56.000Z</time>
      </trkpt>
      <trkpt lat="43.6834" lon="5.56081">
        <ele>271.39999389648</ele>
        <time>2010-12-12T15:00:01.000Z</time>
      </trkpt>
      <trkpt lat="43.68342" lon="5.56088">
        <ele>270.79998779297</ele>
        <time>2010-12-12T15:00:03.000Z</time>
      </trkpt>
      <trkpt lat="43.68349" lon="5.56119">
        <ele>267.79998779297</ele>
        <time>2010-12-12T15:00:10.000Z</time>
      </trkpt>
      <trkpt lat="43.68353" lon="5.56124">
        <ele>268</ele>
        <time>2010-12-12T15:00:12.000Z</time>
      </trkpt>
      <trkpt lat="43.6838" lon="5.56163">
        <ele>267.39999389648</ele>
        <time>2010-12-12T15:00:21.000Z</time>
      </trkpt>
      <trkpt lat="43.6839" lon="5.56174">
        <ele>267.39999389648</ele>
        <time>2010-12-12T15:00:24.000Z</time>
      </trkpt>
      <trkpt lat="43.68407" lon="5.56195">
        <ele>266.79998779297</ele>
        <time>2010-12-12T15:00:29.000Z</time>
      </trkpt>
      <trkpt lat="43.68435" lon="5.56204">
        <ele>267.60000610352</ele>
        <time>2010-12-12T15:00:37.000Z</time>
      </trkpt>
      <trkpt lat="43.68438" lon="5.56211">
        <ele>266.39999389648</ele>
        <time>2010-12-12T15:00:39.000Z</time>
      </trkpt>
      <trkpt lat="43.68468" lon="5.56235">
        <ele>263.60000610352</ele>
        <time>2010-12-12T15:00:48.000Z</time>
      </trkpt>
      <trkpt lat="43.68482" lon="5.56248">
        <ele>262.20001220703</ele>
        <time>2010-12-12T15:00:53.000Z</time>
      </trkpt>
      <trkpt lat="43.68489" lon="5.56252">
        <ele>262</ele>
        <time>2010-12-12T15:00:57.000Z</time>
      </trkpt>
      <trkpt lat="43.68518" lon="5.5625">
        <ele>264</ele>
        <time>2010-12-12T15:01:04.000Z</time>
      </trkpt>
      <trkpt lat="43.68547" lon="5.56256">
        <ele>265</ele>
        <time>2010-12-12T15:01:09.000Z</time>
      </trkpt>
      <trkpt lat="43.68562" lon="5.5627">
        <ele>264</ele>
        <time>2010-12-12T15:01:14.000Z</time>
      </trkpt>
      <trkpt lat="43.6858" lon="5.56278">
        <ele>264</ele>
        <time>2010-12-12T15:01:21.000Z</time>
      </trkpt>
      <trkpt lat="43.68623" lon="5.56286">
        <ele>267.79998779297</ele>
        <time>2010-12-12T15:01:31.000Z</time>
      </trkpt>
      <trkpt lat="43.68629" lon="5.56288">
        <ele>268.39999389648</ele>
        <time>2010-12-12T15:01:38.000Z</time>
      </trkpt>
      <trkpt lat="43.68629" lon="5.56287">
        <ele>268.39999389648</ele>
        <time>2010-12-12T15:02:19.000Z</time>
      </trkpt>
      <trkpt lat="43.68625" lon="5.56288">
        <ele>267.79998779297</ele>
        <time>2010-12-12T15:02:29.000Z</time>
      </trkpt>
      <trkpt lat="43.6864" lon="5.56269">
        <ele>271.39999389648</ele>
        <time>2010-12-12T15:02:37.000Z</time>
      </trkpt>
      <trkpt lat="43.68642" lon="5.56257">
        <ele>272.79998779297</ele>
        <time>2010-12-12T15:02:40.000Z</time>
      </trkpt>
      <trkpt lat="43.68652" lon="5.5624">
        <ele>275.20001220703</ele>
        <time>2010-12-12T15:02:47.000Z</time>
      </trkpt>
      <trkpt lat="43.68648" lon="5.56218">
        <ele>276.60000610352</ele>
        <time>2010-12-12T15:02:57.000Z</time>
      </trkpt>
      <trkpt lat="43.68648" lon="5.56208">
        <ele>277.39999389648</ele>
        <time>2010-12-12T15:03:03.000Z</time>
      </trkpt>
      <trkpt lat="43.68655" lon="5.5621">
        <ele>277.79998779297</ele>
        <time>2010-12-12T15:03:08.000Z</time>
      </trkpt>
      <trkpt lat="43.68669" lon="5.56194">
        <ele>280.20001220703</ele>
        <time>2010-12-12T15:03:18.000Z</time>
      </trkpt>
      <trkpt lat="43.68677" lon="5.56192">
        <ele>281.20001220703</ele>
        <time>2010-12-12T15:03:23.000Z</time>
      </trkpt>
      <trkpt lat="43.68683" lon="5.56201">
        <ele>281.39999389648</ele>
        <time>2010-12-12T15:03:37.000Z</time>
      </trkpt>
      <trkpt lat="43.68683" lon="5.56209">
        <ele>281</ele>
        <time>2010-12-12T15:03:56.000Z</time>
      </trkpt>
      <trkpt lat="43.68687" lon="5.5622">
        <ele>280.79998779297</ele>
        <time>2010-12-12T15:04:06.000Z</time>
      </trkpt>
      <trkpt lat="43.68694" lon="5.56232">
        <ele>281.20001220703</ele>
        <time>2010-12-12T15:04:12.000Z</time>
      </trkpt>
      <trkpt lat="43.68714" lon="5.56257">
        <ele>283.20001220703</ele>
        <time>2010-12-12T15:04:23.000Z</time>
      </trkpt>
      <trkpt lat="43.68717" lon="5.56262">
        <ele>283.39999389648</ele>
        <time>2010-12-12T15:04:26.000Z</time>
      </trkpt>
      <trkpt lat="43.68729" lon="5.56286">
        <ele>283.20001220703</ele>
        <time>2010-12-12T15:04:36.000Z</time>
      </trkpt>
      <trkpt lat="43.68746" lon="5.56282">
        <ele>286.60000610352</ele>
        <time>2010-12-12T15:04:45.000Z</time>
      </trkpt>
      <trkpt lat="43.6875" lon="5.56279">
        <ele>287.39999389648</ele>
        <time>2010-12-12T15:04:47.000Z</time>
      </trkpt>
      <trkpt lat="43.68777" lon="5.56273">
        <ele>290.20001220703</ele>
        <time>2010-12-12T15:04:55.000Z</time>
      </trkpt>
      <trkpt lat="43.68782" lon="5.56272">
        <ele>290.60000610352</ele>
        <time>2010-12-12T15:04:57.000Z</time>
      </trkpt>
      <trkpt lat="43.68791" lon="5.563">
        <ele>289.60000610352</ele>
        <time>2010-12-12T15:05:05.000Z</time>
      </trkpt>
      <trkpt lat="43.68795" lon="5.56311">
        <ele>289.20001220703</ele>
        <time>2010-12-12T15:05:09.000Z</time>
      </trkpt>
      <trkpt lat="43.68804" lon="5.56353">
        <ele>286.39999389648</ele>
        <time>2010-12-12T15:05:18.000Z</time>
      </trkpt>
      <trkpt lat="43.68805" lon="5.56362">
        <ele>285.39999389648</ele>
        <time>2010-12-12T15:05:21.000Z</time>
      </trkpt>
      <trkpt lat="43.68818" lon="5.5638">
        <ele>285</ele>
        <time>2010-12-12T15:05:29.000Z</time>
      </trkpt>
      <trkpt lat="43.68846" lon="5.56363">
        <ele>288.39999389648</ele>
        <time>2010-12-12T15:05:37.000Z</time>
      </trkpt>
      <trkpt lat="43.68874" lon="5.56351">
        <ele>289.39999389648</ele>
        <time>2010-12-12T15:05:41.000Z</time>
      </trkpt>
      <trkpt lat="43.68885" lon="5.56346">
        <ele>289.79998779297</ele>
        <time>2010-12-12T15:05:45.000Z</time>
      </trkpt>
      <trkpt lat="43.68904" lon="5.56339">
        <ele>290.39999389648</ele>
        <time>2010-12-12T15:05:48.000Z</time>
      </trkpt>
      <trkpt lat="43.68933" lon="5.56343">
        <ele>289.20001220703</ele>
        <time>2010-12-12T15:05:57.000Z</time>
      </trkpt>
      <trkpt lat="43.68935" lon="5.56344">
        <ele>289</ele>
        <time>2010-12-12T15:05:58.000Z</time>
      </trkpt>
      <trkpt lat="43.68932" lon="5.56355">
        <ele>287.79998779297</ele>
        <time>2010-12-12T15:06:03.000Z</time>
      </trkpt>
      <trkpt lat="43.68931" lon="5.56382">
        <ele>284.39999389648</ele>
        <time>2010-12-12T15:06:09.000Z</time>
      </trkpt>
      <trkpt lat="43.68928" lon="5.56393">
        <ele>283.20001220703</ele>
        <time>2010-12-12T15:06:11.000Z</time>
      </trkpt>
      <trkpt lat="43.68923" lon="5.56409">
        <ele>281</ele>
        <time>2010-12-12T15:06:13.000Z</time>
      </trkpt>
      <trkpt lat="43.68913" lon="5.56425">
        <ele>279</ele>
        <time>2010-12-12T15:06:16.000Z</time>
      </trkpt>
      <trkpt lat="43.689" lon="5.56454">
        <ele>275</ele>
        <time>2010-12-12T15:06:21.000Z</time>
      </trkpt>
      <trkpt lat="43.68866" lon="5.56483">
        <ele>270</ele>
        <time>2010-12-12T15:06:28.000Z</time>
      </trkpt>
      <trkpt lat="43.68841" lon="5.56491">
        <ele>267.79998779297</ele>
        <time>2010-12-12T15:06:35.000Z</time>
      </trkpt>
      <trkpt lat="43.68832" lon="5.56489">
        <ele>268</ele>
        <time>2010-12-12T15:06:37.000Z</time>
      </trkpt>
      <trkpt lat="43.68812" lon="5.5649">
        <ele>266.20001220703</ele>
        <time>2010-12-12T15:06:43.000Z</time>
      </trkpt>
      <trkpt lat="43.68804" lon="5.56491">
        <ele>265.39999389648</ele>
        <time>2010-12-12T15:06:45.000Z</time>
      </trkpt>
      <trkpt lat="43.68775" lon="5.56503">
        <ele>261.60000610352</ele>
        <time>2010-12-12T15:06:51.000Z</time>
      </trkpt>
      <trkpt lat="43.68749" lon="5.5651">
        <ele>259.79998779297</ele>
        <time>2010-12-12T15:07:00.000Z</time>
      </trkpt>
      <trkpt lat="43.68741" lon="5.56512">
        <ele>259.39999389648</ele>
        <time>2010-12-12T15:07:17.000Z</time>
      </trkpt>
      <trkpt lat="43.68722" lon="5.56506">
        <ele>258.39999389648</ele>
        <time>2010-12-12T15:07:23.000Z</time>
      </trkpt>
      <trkpt lat="43.68691" lon="5.56494">
        <ele>256.79998779297</ele>
        <time>2010-12-12T15:07:28.000Z</time>
      </trkpt>
      <trkpt lat="43.68653" lon="5.56474">
        <ele>256.20001220703</ele>
        <time>2010-12-12T15:07:35.000Z</time>
      </trkpt>
      <trkpt lat="43.68629" lon="5.56456">
        <ele>256.60000610352</ele>
        <time>2010-12-12T15:07:44.000Z</time>
      </trkpt>
      <trkpt lat="43.68598" lon="5.56456">
        <ele>256.60000610352</ele>
        <time>2010-12-12T15:07:53.000Z</time>
      </trkpt>
      <trkpt lat="43.68581" lon="5.56459">
        <ele>257</ele>
        <time>2010-12-12T15:08:02.000Z</time>
      </trkpt>
      <trkpt lat="43.68574" lon="5.56458">
        <ele>257</ele>
        <time>2010-12-12T15:08:06.000Z</time>
      </trkpt>
      <trkpt lat="43.68561" lon="5.56459">
        <ele>257</ele>
        <time>2010-12-12T15:08:13.000Z</time>
      </trkpt>
      <trkpt lat="43.68549" lon="5.5646">
        <ele>257.20001220703</ele>
        <time>2010-12-12T15:08:19.000Z</time>
      </trkpt>
      <trkpt lat="43.68537" lon="5.56479">
        <ele>258.79998779297</ele>
        <time>2010-12-12T15:08:28.000Z</time>
      </trkpt>
      <trkpt lat="43.68527" lon="5.56509">
        <ele>261</ele>
        <time>2010-12-12T15:08:40.000Z</time>
      </trkpt>
      <trkpt lat="43.68509" lon="5.56546">
        <ele>263</ele>
        <time>2010-12-12T15:08:52.000Z</time>
      </trkpt>
      <trkpt lat="43.68508" lon="5.56548">
        <ele>263.20001220703</ele>
        <time>2010-12-12T15:08:53.000Z</time>
      </trkpt>
      <trkpt lat="43.68494" lon="5.5655">
        <ele>263.20001220703</ele>
        <time>2010-12-12T15:08:58.000Z</time>
      </trkpt>
      <trkpt lat="43.68457" lon="5.56512">
        <ele>260.39999389648</ele>
        <time>2010-12-12T15:09:05.000Z</time>
      </trkpt>
      <trkpt lat="43.68439" lon="5.56497">
        <ele>259.20001220703</ele>
        <time>2010-12-12T15:09:08.000Z</time>
      </trkpt>
      <trkpt lat="43.68424" lon="5.56494">
        <ele>258.60000610352</ele>
        <time>2010-12-12T15:09:14.000Z</time>
      </trkpt>
      <trkpt lat="43.68419" lon="5.56494">
        <ele>258.60000610352</ele>
        <time>2010-12-12T15:09:18.000Z</time>
      </trkpt>
      <trkpt lat="43.68416" lon="5.56486">
        <ele>258</ele>
        <time>2010-12-12T15:09:20.000Z</time>
      </trkpt>
      <trkpt lat="43.68404" lon="5.56455">
        <ele>257</ele>
        <time>2010-12-12T15:09:27.000Z</time>
      </trkpt>
      <trkpt lat="43.68395" lon="5.56443">
        <ele>256.79998779297</ele>
        <time>2010-12-12T15:09:31.000Z</time>
      </trkpt>
      <trkpt lat="43.68362" lon="5.56396">
        <ele>256.20001220703</ele>
        <time>2010-12-12T15:09:42.000Z</time>
      </trkpt>
      <trkpt lat="43.68336" lon="5.56371">
        <ele>256</ele>
        <time>2010-12-12T15:09:49.000Z</time>
      </trkpt>
      <trkpt lat="43.68327" lon="5.56362">
        <ele>255.80000305176</ele>
        <time>2010-12-12T15:09:51.000Z</time>
      </trkpt>
      <trkpt lat="43.68308" lon="5.56338">
        <ele>255</ele>
        <time>2010-12-12T15:09:55.000Z</time>
      </trkpt>
      <trkpt lat="43.68277" lon="5.5628">
        <ele>250.80000305176</ele>
        <time>2010-12-12T15:10:03.000Z</time>
      </trkpt>
      <trkpt lat="43.68265" lon="5.56266">
        <ele>249.19999694824</ele>
        <time>2010-12-12T15:10:06.000Z</time>
      </trkpt>
      <trkpt lat="43.68232" lon="5.56268">
        <ele>249</ele>
        <time>2010-12-12T15:10:12.000Z</time>
      </trkpt>
      <trkpt lat="43.68213" lon="5.56275">
        <ele>249.60000610352</ele>
        <time>2010-12-12T15:10:15.000Z</time>
      </trkpt>
      <trkpt lat="43.6819" lon="5.56282">
        <ele>250</ele>
        <time>2010-12-12T15:10:19.000Z</time>
      </trkpt>
      <trkpt lat="43.68181" lon="5.56286">
        <ele>250.39999389648</ele>
        <time>2010-12-12T15:10:24.000Z</time>
      </trkpt>
      <trkpt lat="43.68137" lon="5.56301">
        <ele>249.39999389648</ele>
        <time>2010-12-12T15:10:33.000Z</time>
      </trkpt>
      <trkpt lat="43.68117" lon="5.56309">
        <ele>248.39999389648</ele>
        <time>2010-12-12T15:10:37.000Z</time>
      </trkpt>
      <trkpt lat="43.68104" lon="5.56319">
        <ele>248</ele>
        <time>2010-12-12T15:10:40.000Z</time>
      </trkpt>
      <trkpt lat="43.68083" lon="5.56331">
        <ele>246.80000305176</ele>
        <time>2010-12-12T15:10:44.000Z</time>
      </trkpt>
      <trkpt lat="43.68055" lon="5.56345">
        <ele>247.80000305176</ele>
        <time>2010-12-12T15:10:52.000Z</time>
      </trkpt>
      <trkpt lat="43.68053" lon="5.56346">
        <ele>247.80000305176</ele>
        <time>2010-12-12T15:10:53.000Z</time>
      </trkpt>
      <trkpt lat="43.68026" lon="5.56351">
        <ele>246.80000305176</ele>
        <time>2010-12-12T15:11:00.000Z</time>
      </trkpt>
      <trkpt lat="43.68006" lon="5.56352">
        <ele>245.39999389648</ele>
        <time>2010-12-12T15:11:05.000Z</time>
      </trkpt>
      <trkpt lat="43.67995" lon="5.5636">
        <ele>246.39999389648</ele>
        <time>2010-12-12T15:11:13.000Z</time>
      </trkpt>
      <trkpt lat="43.67982" lon="5.56389">
        <ele>250.39999389648</ele>
        <time>2010-12-12T15:11:46.000Z</time>
      </trkpt>
      <trkpt lat="43.67978" lon="5.56405">
        <ele>252.60000610352</ele>
        <time>2010-12-12T15:11:49.000Z</time>
      </trkpt>
      <trkpt lat="43.67971" lon="5.56431">
        <ele>254.60000610352</ele>
        <time>2010-12-12T15:11:54.000Z</time>
      </trkpt>
      <trkpt lat="43.67973" lon="5.56459">
        <ele>256</ele>
        <time>2010-12-12T15:12:00.000Z</time>
      </trkpt>
      <trkpt lat="43.67968" lon="5.56486">
        <ele>257</ele>
        <time>2010-12-12T15:12:04.000Z</time>
      </trkpt>
      <trkpt lat="43.67975" lon="5.56497">
        <ele>258</ele>
        <time>2010-12-12T15:12:13.000Z</time>
      </trkpt>
      <trkpt lat="43.67976" lon="5.56499">
        <ele>258.20001220703</ele>
        <time>2010-12-12T15:12:32.000Z</time>
      </trkpt>
      <trkpt lat="43.67983" lon="5.56511">
        <ele>258.79998779297</ele>
        <time>2010-12-12T15:12:40.000Z</time>
      </trkpt>
      <trkpt lat="43.67989" lon="5.56519">
        <ele>259.20001220703</ele>
        <time>2010-12-12T15:12:46.000Z</time>
      </trkpt>
      <trkpt lat="43.6799" lon="5.56523">
        <ele>259.39999389648</ele>
        <time>2010-12-12T15:12:48.000Z</time>
      </trkpt>
      <trkpt lat="43.68002" lon="5.56538">
        <ele>260.20001220703</ele>
        <time>2010-12-12T15:12:58.000Z</time>
      </trkpt>
      <trkpt lat="43.68005" lon="5.56544">
        <ele>260.79998779297</ele>
        <time>2010-12-12T15:13:03.000Z</time>
      </trkpt>
      <trkpt lat="43.68015" lon="5.56557">
        <ele>262</ele>
        <time>2010-12-12T15:13:11.000Z</time>
      </trkpt>
      <trkpt lat="43.68019" lon="5.56566">
        <ele>262.60000610352</ele>
        <time>2010-12-12T15:13:16.000Z</time>
      </trkpt>
      <trkpt lat="43.68028" lon="5.5658">
        <ele>263.60000610352</ele>
        <time>2010-12-12T15:13:23.000Z</time>
      </trkpt>
      <trkpt lat="43.68036" lon="5.56587">
        <ele>264.79998779297</ele>
        <time>2010-12-12T15:13:28.000Z</time>
      </trkpt>
      <trkpt lat="43.6806" lon="5.56617">
        <ele>268</ele>
        <time>2010-12-12T15:13:42.000Z</time>
      </trkpt>
      <trkpt lat="43.68073" lon="5.56632">
        <ele>268.60000610352</ele>
        <time>2010-12-12T15:13:49.000Z</time>
      </trkpt>
      <trkpt lat="43.68079" lon="5.56644">
        <ele>268.60000610352</ele>
        <time>2010-12-12T15:13:54.000Z</time>
      </trkpt>
      <trkpt lat="43.68087" lon="5.56652">
        <ele>268.79998779297</ele>
        <time>2010-12-12T15:13:58.000Z</time>
      </trkpt>
      <trkpt lat="43.68098" lon="5.56669">
        <ele>269.79998779297</ele>
        <time>2010-12-12T15:14:06.000Z</time>
      </trkpt>
      <trkpt lat="43.68102" lon="5.56675">
        <ele>270.39999389648</ele>
        <time>2010-12-12T15:14:09.000Z</time>
      </trkpt>
      <trkpt lat="43.6811" lon="5.56683">
        <ele>271.79998779297</ele>
        <time>2010-12-12T15:14:13.000Z</time>
      </trkpt>
      <trkpt lat="43.6813" lon="5.56706">
        <ele>274.20001220703</ele>
        <time>2010-12-12T15:14:25.000Z</time>
      </trkpt>
      <trkpt lat="43.68135" lon="5.56713">
        <ele>274.79998779297</ele>
        <time>2010-12-12T15:14:28.000Z</time>
      </trkpt>
      <trkpt lat="43.68145" lon="5.56728">
        <ele>275.79998779297</ele>
        <time>2010-12-12T15:14:36.000Z</time>
      </trkpt>
      <trkpt lat="43.6815" lon="5.56748">
        <ele>276.20001220703</ele>
        <time>2010-12-12T15:14:44.000Z</time>
      </trkpt>
      <trkpt lat="43.68147" lon="5.56773">
        <ele>278</ele>
        <time>2010-12-12T15:14:52.000Z</time>
      </trkpt>
      <trkpt lat="43.68136" lon="5.56807">
        <ele>280.79998779297</ele>
        <time>2010-12-12T15:15:04.000Z</time>
      </trkpt>
      <trkpt lat="43.6813" lon="5.56841">
        <ele>283.60000610352</ele>
        <time>2010-12-12T15:15:17.000Z</time>
      </trkpt>
      <trkpt lat="43.68124" lon="5.56871">
        <ele>286</ele>
        <time>2010-12-12T15:15:27.000Z</time>
      </trkpt>
      <trkpt lat="43.68112" lon="5.56907">
        <ele>288</ele>
        <time>2010-12-12T15:15:39.000Z</time>
      </trkpt>
      <trkpt lat="43.68102" lon="5.56943">
        <ele>288.39999389648</ele>
        <time>2010-12-12T15:15:51.000Z</time>
      </trkpt>
      <trkpt lat="43.68098" lon="5.56952">
        <ele>288.39999389648</ele>
        <time>2010-12-12T15:15:54.000Z</time>
      </trkpt>
      <trkpt lat="43.68098" lon="5.56969">
        <ele>288.79998779297</ele>
        <time>2010-12-12T15:15:59.000Z</time>
      </trkpt>
      <trkpt lat="43.68097" lon="5.5701">
        <ele>289.79998779297</ele>
        <time>2010-12-12T15:16:12.000Z</time>
      </trkpt>
      <trkpt lat="43.68099" lon="5.57045">
        <ele>290.79998779297</ele>
        <time>2010-12-12T15:16:22.000Z</time>
      </trkpt>
      <trkpt lat="43.68099" lon="5.57051">
        <ele>291</ele>
        <time>2010-12-12T15:16:24.000Z</time>
      </trkpt>
      <trkpt lat="43.68089" lon="5.57053">
        <ele>290.20001220703</ele>
        <time>2010-12-12T15:16:33.000Z</time>
      </trkpt>
      <trkpt lat="43.68047" lon="5.57038">
        <ele>292.60000610352</ele>
        <time>2010-12-12T15:16:45.000Z</time>
      </trkpt>
      <trkpt lat="43.68029" lon="5.5704">
        <ele>294.39999389648</ele>
        <time>2010-12-12T15:16:56.000Z</time>
      </trkpt>
      <trkpt lat="43.6802" lon="5.57041">
        <ele>295.20001220703</ele>
        <time>2010-12-12T15:17:01.000Z</time>
      </trkpt>
      <trkpt lat="43.68013" lon="5.57041">
        <ele>295.79998779297</ele>
        <time>2010-12-12T15:17:05.000Z</time>
      </trkpt>
      <trkpt lat="43.68006" lon="5.57043">
        <ele>296.20001220703</ele>
        <time>2010-12-12T15:17:09.000Z</time>
      </trkpt>
      <trkpt lat="43.68" lon="5.57044">
        <ele>296.79998779297</ele>
        <time>2010-12-12T15:17:13.000Z</time>
      </trkpt>
      <trkpt lat="43.6799" lon="5.57039">
        <ele>298.39999389648</ele>
        <time>2010-12-12T15:17:20.000Z</time>
      </trkpt>
      <trkpt lat="43.67986" lon="5.57037">
        <ele>299</ele>
        <time>2010-12-12T15:17:36.000Z</time>
      </trkpt>
      <trkpt lat="43.67982" lon="5.57039">
        <ele>299.60000610352</ele>
        <time>2010-12-12T15:17:59.000Z</time>
      </trkpt>
      <trkpt lat="43.67973" lon="5.57023">
        <ele>300.60000610352</ele>
        <time>2010-12-12T15:18:26.000Z</time>
      </trkpt>
      <trkpt lat="43.67953" lon="5.57007">
        <ele>302.20001220703</ele>
        <time>2010-12-12T15:18:43.000Z</time>
      </trkpt>
      <trkpt lat="43.67947" lon="5.57003">
        <ele>302.60000610352</ele>
        <time>2010-12-12T15:18:56.000Z</time>
      </trkpt>
      <trkpt lat="43.67938" lon="5.56996">
        <ele>302.79998779297</ele>
        <time>2010-12-12T15:19:04.000Z</time>
      </trkpt>
      <trkpt lat="43.67923" lon="5.56987">
        <ele>302.79998779297</ele>
        <time>2010-12-12T15:19:08.000Z</time>
      </trkpt>
      <trkpt lat="43.67879" lon="5.56971">
        <ele>299.60000610352</ele>
        <time>2010-12-12T15:19:18.000Z</time>
      </trkpt>
      <trkpt lat="43.67851" lon="5.56966">
        <ele>297.79998779297</ele>
        <time>2010-12-12T15:19:26.000Z</time>
      </trkpt>
      <trkpt lat="43.67843" lon="5.56965">
        <ele>297.39999389648</ele>
        <time>2010-12-12T15:19:28.000Z</time>
      </trkpt>
      <trkpt lat="43.6783" lon="5.5696">
        <ele>296.20001220703</ele>
        <time>2010-12-12T15:19:32.000Z</time>
      </trkpt>
      <trkpt lat="43.6783" lon="5.56953">
        <ele>295.60000610352</ele>
        <time>2010-12-12T15:19:34.000Z</time>
      </trkpt>
      <trkpt lat="43.6784" lon="5.56925">
        <ele>293.79998779297</ele>
        <time>2010-12-12T15:19:40.000Z</time>
      </trkpt>
      <trkpt lat="43.67839" lon="5.56915">
        <ele>292.79998779297</ele>
        <time>2010-12-12T15:19:46.000Z</time>
      </trkpt>
      <trkpt lat="43.67834" lon="5.56896">
        <ele>291.20001220703</ele>
        <time>2010-12-12T15:19:52.000Z</time>
      </trkpt>
      <trkpt lat="43.67826" lon="5.56859">
        <ele>287.39999389648</ele>
        <time>2010-12-12T15:19:57.000Z</time>
      </trkpt>
      <trkpt lat="43.67814" lon="5.56819">
        <ele>283.20001220703</ele>
        <time>2010-12-12T15:20:05.000Z</time>
      </trkpt>
      <trkpt lat="43.67813" lon="5.56817">
        <ele>282.79998779297</ele>
        <time>2010-12-12T15:20:21.000Z</time>
      </trkpt>
      <trkpt lat="43.67813" lon="5.56819">
        <ele>283</ele>
        <time>2010-12-12T15:21:06.000Z</time>
      </trkpt>
      <trkpt lat="43.67814" lon="5.56822">
        <ele>283.20001220703</ele>
        <time>2010-12-12T15:21:08.000Z</time>
      </trkpt>
      <trkpt lat="43.67817" lon="5.56838">
        <ele>284.79998779297</ele>
        <time>2010-12-12T15:21:15.000Z</time>
      </trkpt>
      <trkpt lat="43.67819" lon="5.56849">
        <ele>285.79998779297</ele>
        <time>2010-12-12T15:21:20.000Z</time>
      </trkpt>
      <trkpt lat="43.67825" lon="5.56871">
        <ele>288.20001220703</ele>
        <time>2010-12-12T15:21:32.000Z</time>
      </trkpt>
      <trkpt lat="43.67826" lon="5.56875">
        <ele>288.60000610352</ele>
        <time>2010-12-12T15:21:34.000Z</time>
      </trkpt>
      <trkpt lat="43.67828" lon="5.56885">
        <ele>289.60000610352</ele>
        <time>2010-12-12T15:21:38.000Z</time>
      </trkpt>
      <trkpt lat="43.6783" lon="5.56894">
        <ele>290.60000610352</ele>
        <time>2010-12-12T15:21:43.000Z</time>
      </trkpt>
      <trkpt lat="43.67832" lon="5.56898">
        <ele>291.20001220703</ele>
        <time>2010-12-12T15:21:45.000Z</time>
      </trkpt>
      <trkpt lat="43.67836" lon="5.56914">
        <ele>292.79998779297</ele>
        <time>2010-12-12T15:21:56.000Z</time>
      </trkpt>
      <trkpt lat="43.67843" lon="5.56929">
        <ele>294.20001220703</ele>
        <time>2010-12-12T15:22:08.000Z</time>
      </trkpt>
      <trkpt lat="43.67836" lon="5.56922">
        <ele>293.39999389648</ele>
        <time>2010-12-12T15:22:14.000Z</time>
      </trkpt>
      <trkpt lat="43.67834" lon="5.56935">
        <ele>294.39999389648</ele>
        <time>2010-12-12T15:22:20.000Z</time>
      </trkpt>
      <trkpt lat="43.67825" lon="5.56954">
        <ele>295.20001220703</ele>
        <time>2010-12-12T15:22:32.000Z</time>
      </trkpt>
      <trkpt lat="43.67844" lon="5.5696">
        <ele>297</ele>
        <time>2010-12-12T15:22:45.000Z</time>
      </trkpt>
      <trkpt lat="43.67854" lon="5.56964">
        <ele>297.79998779297</ele>
        <time>2010-12-12T15:22:53.000Z</time>
      </trkpt>
      <trkpt lat="43.67856" lon="5.56965">
        <ele>298</ele>
        <time>2010-12-12T15:22:54.000Z</time>
      </trkpt>
      <trkpt lat="43.67865" lon="5.56983">
        <ele>300.20001220703</ele>
        <time>2010-12-12T15:23:06.000Z</time>
      </trkpt>
      <trkpt lat="43.67869" lon="5.56989">
        <ele>301</ele>
        <time>2010-12-12T15:23:11.000Z</time>
      </trkpt>
      <trkpt lat="43.67877" lon="5.57009">
        <ele>303.39999389648</ele>
        <time>2010-12-12T15:23:23.000Z</time>
      </trkpt>
      <trkpt lat="43.67881" lon="5.57014">
        <ele>304.39999389648</ele>
        <time>2010-12-12T15:23:37.000Z</time>
      </trkpt>
      <trkpt lat="43.67891" lon="5.57023">
        <ele>306</ele>
        <time>2010-12-12T15:23:54.000Z</time>
      </trkpt>
      <trkpt lat="43.67898" lon="5.57031">
        <ele>307.20001220703</ele>
        <time>2010-12-12T15:24:05.000Z</time>
      </trkpt>
      <trkpt lat="43.67904" lon="5.57041">
        <ele>308.60000610352</ele>
        <time>2010-12-12T15:24:11.000Z</time>
      </trkpt>
      <trkpt lat="43.67911" lon="5.57054">
        <ele>310.39999389648</ele>
        <time>2010-12-12T15:24:18.000Z</time>
      </trkpt>
      <trkpt lat="43.67936" lon="5.57062">
        <ele>308.20001220703</ele>
        <time>2010-12-12T15:24:28.000Z</time>
      </trkpt>
      <trkpt lat="43.67949" lon="5.57066">
        <ele>306</ele>
        <time>2010-12-12T15:24:31.000Z</time>
      </trkpt>
      <trkpt lat="43.67973" lon="5.57088">
        <ele>302.20001220703</ele>
        <time>2010-12-12T15:24:38.000Z</time>
      </trkpt>
      <trkpt lat="43.67974" lon="5.57117">
        <ele>305</ele>
        <time>2010-12-12T15:24:48.000Z</time>
      </trkpt>
      <trkpt lat="43.67973" lon="5.57146">
        <ele>308.39999389648</ele>
        <time>2010-12-12T15:25:01.000Z</time>
      </trkpt>
      <trkpt lat="43.67982" lon="5.57157">
        <ele>307.60000610352</ele>
        <time>2010-12-12T15:25:16.000Z</time>
      </trkpt>
      <trkpt lat="43.67983" lon="5.57161">
        <ele>307.79998779297</ele>
        <time>2010-12-12T15:25:18.000Z</time>
      </trkpt>
      <trkpt lat="43.67987" lon="5.57171">
        <ele>307.79998779297</ele>
        <time>2010-12-12T15:25:28.000Z</time>
      </trkpt>
      <trkpt lat="43.67987" lon="5.57171">
        <ele>308</ele>
        <time>2010-12-12T15:25:46.000Z</time>
      </trkpt>
      <trkpt lat="43.67986" lon="5.57178">
        <ele>308.39999389648</ele>
        <time>2010-12-12T15:25:50.000Z</time>
      </trkpt>
      <trkpt lat="43.67997" lon="5.57195">
        <ele>307.20001220703</ele>
        <time>2010-12-12T15:25:57.000Z</time>
      </trkpt>
      <trkpt lat="43.68037" lon="5.57185">
        <ele>303.79998779297</ele>
        <time>2010-12-12T15:26:09.000Z</time>
      </trkpt>
      <trkpt lat="43.68056" lon="5.57182">
        <ele>302.39999389648</ele>
        <time>2010-12-12T15:26:14.000Z</time>
      </trkpt>
      <trkpt lat="43.68071" lon="5.57183">
        <ele>301.60000610352</ele>
        <time>2010-12-12T15:26:18.000Z</time>
      </trkpt>
      <trkpt lat="43.68106" lon="5.57193">
        <ele>301.79998779297</ele>
        <time>2010-12-12T15:26:29.000Z</time>
      </trkpt>
      <trkpt lat="43.68124" lon="5.57211">
        <ele>303.39999389648</ele>
        <time>2010-12-12T15:26:41.000Z</time>
      </trkpt>
      <trkpt lat="43.6814" lon="5.57222">
        <ele>304.20001220703</ele>
        <time>2010-12-12T15:26:55.000Z</time>
      </trkpt>
      <trkpt lat="43.6816" lon="5.57241">
        <ele>305.39999389648</ele>
        <time>2010-12-12T15:27:06.000Z</time>
      </trkpt>
      <trkpt lat="43.68162" lon="5.57246">
        <ele>305.60000610352</ele>
        <time>2010-12-12T15:27:09.000Z</time>
      </trkpt>
      <trkpt lat="43.68155" lon="5.57264">
        <ele>307.60000610352</ele>
        <time>2010-12-12T15:27:26.000Z</time>
      </trkpt>
      <trkpt lat="43.68151" lon="5.57267">
        <ele>308</ele>
        <time>2010-12-12T15:27:30.000Z</time>
      </trkpt>
      <trkpt lat="43.68146" lon="5.57269">
        <ele>308.60000610352</ele>
        <time>2010-12-12T15:27:34.000Z</time>
      </trkpt>
      <trkpt lat="43.68134" lon="5.57279">
        <ele>310</ele>
        <time>2010-12-12T15:27:43.000Z</time>
      </trkpt>
      <trkpt lat="43.68126" lon="5.57281">
        <ele>310.60000610352</ele>
        <time>2010-12-12T15:27:47.000Z</time>
      </trkpt>
      <trkpt lat="43.68105" lon="5.5729">
        <ele>312.20001220703</ele>
        <time>2010-12-12T15:27:57.000Z</time>
      </trkpt>
      <trkpt lat="43.68088" lon="5.57306">
        <ele>314.79998779297</ele>
        <time>2010-12-12T15:28:07.000Z</time>
      </trkpt>
      <trkpt lat="43.68068" lon="5.57327">
        <ele>317.20001220703</ele>
        <time>2010-12-12T15:28:18.000Z</time>
      </trkpt>
      <trkpt lat="43.68064" lon="5.57334">
        <ele>318</ele>
        <time>2010-12-12T15:28:21.000Z</time>
      </trkpt>
      <trkpt lat="43.68069" lon="5.57352">
        <ele>320.39999389648</ele>
        <time>2010-12-12T15:28:29.000Z</time>
      </trkpt>
      <trkpt lat="43.68098" lon="5.57384">
        <ele>323.39999389648</ele>
        <time>2010-12-12T15:28:40.000Z</time>
      </trkpt>
      <trkpt lat="43.68114" lon="5.57401">
        <ele>324.20001220703</ele>
        <time>2010-12-12T15:28:46.000Z</time>
      </trkpt>
      <trkpt lat="43.68118" lon="5.57407">
        <ele>324.39999389648</ele>
        <time>2010-12-12T15:28:48.000Z</time>
      </trkpt>
      <trkpt lat="43.68142" lon="5.5743">
        <ele>323.60000610352</ele>
        <time>2010-12-12T15:28:57.000Z</time>
      </trkpt>
      <trkpt lat="43.68145" lon="5.57436">
        <ele>323.60000610352</ele>
        <time>2010-12-12T15:29:01.000Z</time>
      </trkpt>
      <trkpt lat="43.68147" lon="5.5744">
        <ele>323.60000610352</ele>
        <time>2010-12-12T15:29:04.000Z</time>
      </trkpt>
      <trkpt lat="43.6815" lon="5.5745">
        <ele>323.39999389648</ele>
        <time>2010-12-12T15:29:08.000Z</time>
      </trkpt>
      <trkpt lat="43.6815" lon="5.57477">
        <ele>324.20001220703</ele>
        <time>2010-12-12T15:29:14.000Z</time>
      </trkpt>
      <trkpt lat="43.68147" lon="5.57522">
        <ele>325.20001220703</ele>
        <time>2010-12-12T15:29:22.000Z</time>
      </trkpt>
      <trkpt lat="43.68145" lon="5.57526">
        <ele>325.39999389648</ele>
        <time>2010-12-12T15:29:23.000Z</time>
      </trkpt>
      <trkpt lat="43.68136" lon="5.57536">
        <ele>326.39999389648</ele>
        <time>2010-12-12T15:29:27.000Z</time>
      </trkpt>
      <trkpt lat="43.68129" lon="5.57554">
        <ele>327.39999389648</ele>
        <time>2010-12-12T15:29:31.000Z</time>
      </trkpt>
      <trkpt lat="43.68128" lon="5.57579">
        <ele>327.39999389648</ele>
        <time>2010-12-12T15:29:45.000Z</time>
      </trkpt>
      <trkpt lat="43.68126" lon="5.57587">
        <ele>328.20001220703</ele>
        <time>2010-12-12T15:30:11.000Z</time>
      </trkpt>
      <trkpt lat="43.68125" lon="5.57589">
        <ele>328.39999389648</ele>
        <time>2010-12-12T15:30:38.000Z</time>
      </trkpt>
      <trkpt lat="43.68114" lon="5.5761">
        <ele>332.60000610352</ele>
        <time>2010-12-12T15:30:51.000Z</time>
      </trkpt>
      <trkpt lat="43.68112" lon="5.57623">
        <ele>334.20001220703</ele>
        <time>2010-12-12T15:31:07.000Z</time>
      </trkpt>
      <trkpt lat="43.68111" lon="5.57625">
        <ele>334.79998779297</ele>
        <time>2010-12-12T15:31:14.000Z</time>
      </trkpt>
      <trkpt lat="43.68103" lon="5.57631">
        <ele>336.79998779297</ele>
        <time>2010-12-12T15:31:21.000Z</time>
      </trkpt>
      <trkpt lat="43.68097" lon="5.57643">
        <ele>339.20001220703</ele>
        <time>2010-12-12T15:31:30.000Z</time>
      </trkpt>
      <trkpt lat="43.68093" lon="5.57648">
        <ele>340.60000610352</ele>
        <time>2010-12-12T15:31:34.000Z</time>
      </trkpt>
      <trkpt lat="43.68087" lon="5.57661">
        <ele>343.39999389648</ele>
        <time>2010-12-12T15:31:48.000Z</time>
      </trkpt>
      <trkpt lat="43.68078" lon="5.57689">
        <ele>345.60000610352</ele>
        <time>2010-12-12T15:32:09.000Z</time>
      </trkpt>
      <trkpt lat="43.68076" lon="5.57699">
        <ele>345.79998779297</ele>
        <time>2010-12-12T15:32:16.000Z</time>
      </trkpt>
      <trkpt lat="43.68073" lon="5.57712">
        <ele>346.39999389648</ele>
        <time>2010-12-12T15:32:22.000Z</time>
      </trkpt>
      <trkpt lat="43.68069" lon="5.57725">
        <ele>347</ele>
        <time>2010-12-12T15:32:27.000Z</time>
      </trkpt>
      <trkpt lat="43.68048" lon="5.57734">
        <ele>348.20001220703</ele>
        <time>2010-12-12T15:32:40.000Z</time>
      </trkpt>
      <trkpt lat="43.68036" lon="5.57746">
        <ele>349.39999389648</ele>
        <time>2010-12-12T15:32:53.000Z</time>
      </trkpt>
      <trkpt lat="43.68032" lon="5.57768">
        <ele>350.79998779297</ele>
        <time>2010-12-12T15:33:06.000Z</time>
      </trkpt>
      <trkpt lat="43.68026" lon="5.57782">
        <ele>352</ele>
        <time>2010-12-12T15:33:41.000Z</time>
      </trkpt>
      <trkpt lat="43.68025" lon="5.57812">
        <ele>353.39999389648</ele>
        <time>2010-12-12T15:33:48.000Z</time>
      </trkpt>
      <trkpt lat="43.68023" lon="5.57821">
        <ele>354</ele>
        <time>2010-12-12T15:33:50.000Z</time>
      </trkpt>
      <trkpt lat="43.68019" lon="5.57841">
        <ele>355</ele>
        <time>2010-12-12T15:33:54.000Z</time>
      </trkpt>
      <trkpt lat="43.68038" lon="5.57892">
        <ele>356.20001220703</ele>
        <time>2010-12-12T15:34:04.000Z</time>
      </trkpt>
      <trkpt lat="43.68044" lon="5.57932">
        <ele>357.20001220703</ele>
        <time>2010-12-12T15:34:12.000Z</time>
      </trkpt>
      <trkpt lat="43.68045" lon="5.57945">
        <ele>357</ele>
        <time>2010-12-12T15:34:15.000Z</time>
      </trkpt>
      <trkpt lat="43.6805" lon="5.57959">
        <ele>357</ele>
        <time>2010-12-12T15:34:19.000Z</time>
      </trkpt>
      <trkpt lat="43.68073" lon="5.57996">
        <ele>358.20001220703</ele>
        <time>2010-12-12T15:34:30.000Z</time>
      </trkpt>
      <trkpt lat="43.6807" lon="5.58012">
        <ele>357.79998779297</ele>
        <time>2010-12-12T15:34:45.000Z</time>
      </trkpt>
      <trkpt lat="43.68071" lon="5.58011">
        <ele>357.79998779297</ele>
        <time>2010-12-12T15:35:00.000Z</time>
      </trkpt>
      <trkpt lat="43.68056" lon="5.58004">
        <ele>357.20001220703</ele>
        <time>2010-12-12T15:35:08.000Z</time>
      </trkpt>
      <trkpt lat="43.68045" lon="5.57996">
        <ele>356.60000610352</ele>
        <time>2010-12-12T15:35:11.000Z</time>
      </trkpt>
      <trkpt lat="43.68017" lon="5.57979">
        <ele>355.60000610352</ele>
        <time>2010-12-12T15:35:16.000Z</time>
      </trkpt>
      <trkpt lat="43.67976" lon="5.57945">
        <ele>355.39999389648</ele>
        <time>2010-12-12T15:35:24.000Z</time>
      </trkpt>
      <trkpt lat="43.67948" lon="5.57915">
        <ele>353.39999389648</ele>
        <time>2010-12-12T15:35:34.000Z</time>
      </trkpt>
      <trkpt lat="43.67948" lon="5.57916">
        <ele>353.60000610352</ele>
        <time>2010-12-12T15:36:07.000Z</time>
      </trkpt>
      <trkpt lat="43.67949" lon="5.57917">
        <ele>353.60000610352</ele>
        <time>2010-12-12T15:36:11.000Z</time>
      </trkpt>
      <trkpt lat="43.67952" lon="5.57919">
        <ele>353.79998779297</ele>
        <time>2010-12-12T15:36:14.000Z</time>
      </trkpt>
      <trkpt lat="43.67957" lon="5.57926">
        <ele>354.39999389648</ele>
        <time>2010-12-12T15:36:19.000Z</time>
      </trkpt>
      <trkpt lat="43.6798" lon="5.57949">
        <ele>355.60000610352</ele>
        <time>2010-12-12T15:36:30.000Z</time>
      </trkpt>
      <trkpt lat="43.68026" lon="5.57982">
        <ele>356</ele>
        <time>2010-12-12T15:36:46.000Z</time>
      </trkpt>
      <trkpt lat="43.68053" lon="5.58">
        <ele>357.20001220703</ele>
        <time>2010-12-12T15:36:57.000Z</time>
      </trkpt>
      <trkpt lat="43.68071" lon="5.58012">
        <ele>357.79998779297</ele>
        <time>2010-12-12T15:37:04.000Z</time>
      </trkpt>
      <trkpt lat="43.68086" lon="5.58011">
        <ele>358.39999389648</ele>
        <time>2010-12-12T15:37:13.000Z</time>
      </trkpt>
      <trkpt lat="43.68091" lon="5.58015">
        <ele>358</ele>
        <time>2010-12-12T15:37:18.000Z</time>
      </trkpt>
      <trkpt lat="43.68093" lon="5.58024">
        <ele>357.60000610352</ele>
        <time>2010-12-12T15:37:23.000Z</time>
      </trkpt>
      <trkpt lat="43.6811" lon="5.58051">
        <ele>356.20001220703</ele>
        <time>2010-12-12T15:37:33.000Z</time>
      </trkpt>
      <trkpt lat="43.6813" lon="5.58034">
        <ele>355.79998779297</ele>
        <time>2010-12-12T15:37:42.000Z</time>
      </trkpt>
      <trkpt lat="43.68134" lon="5.58031">
        <ele>355.79998779297</ele>
        <time>2010-12-12T15:37:53.000Z</time>
      </trkpt>
      <trkpt lat="43.68134" lon="5.58037">
        <ele>355.60000610352</ele>
        <time>2010-12-12T15:38:39.000Z</time>
      </trkpt>
      <trkpt lat="43.68132" lon="5.58031">
        <ele>355.79998779297</ele>
        <time>2010-12-12T15:38:42.000Z</time>
      </trkpt>
      <trkpt lat="43.68118" lon="5.58019">
        <ele>356.79998779297</ele>
        <time>2010-12-12T15:38:51.000Z</time>
      </trkpt>
      <trkpt lat="43.68117" lon="5.58016">
        <ele>356.79998779297</ele>
        <time>2010-12-12T15:38:52.000Z</time>
      </trkpt>
      <trkpt lat="43.68131" lon="5.57996">
        <ele>356.39999389648</ele>
        <time>2010-12-12T15:39:00.000Z</time>
      </trkpt>
      <trkpt lat="43.68148" lon="5.57995">
        <ele>355.60000610352</ele>
        <time>2010-12-12T15:39:03.000Z</time>
      </trkpt>
      <trkpt lat="43.68159" lon="5.58">
        <ele>355.20001220703</ele>
        <time>2010-12-12T15:39:05.000Z</time>
      </trkpt>
      <trkpt lat="43.68189" lon="5.5802">
        <ele>351.20001220703</ele>
        <time>2010-12-12T15:39:10.000Z</time>
      </trkpt>
      <trkpt lat="43.6822" lon="5.58035">
        <ele>346.60000610352</ele>
        <time>2010-12-12T15:39:19.000Z</time>
      </trkpt>
      <trkpt lat="43.68243" lon="5.58056">
        <ele>343.79998779297</ele>
        <time>2010-12-12T15:39:30.000Z</time>
      </trkpt>
      <trkpt lat="43.68252" lon="5.58062">
        <ele>342.79998779297</ele>
        <time>2010-12-12T15:39:32.000Z</time>
      </trkpt>
      <trkpt lat="43.68285" lon="5.58077">
        <ele>338.60000610352</ele>
        <time>2010-12-12T15:39:38.000Z</time>
      </trkpt>
      <trkpt lat="43.68312" lon="5.58114">
        <ele>337.20001220703</ele>
        <time>2010-12-12T15:39:46.000Z</time>
      </trkpt>
      <trkpt lat="43.68311" lon="5.58121">
        <ele>337.79998779297</ele>
        <time>2010-12-12T15:39:49.000Z</time>
      </trkpt>
      <trkpt lat="43.68312" lon="5.58126">
        <ele>338</ele>
        <time>2010-12-12T15:39:52.000Z</time>
      </trkpt>
      <trkpt lat="43.68312" lon="5.58131">
        <ele>338.39999389648</ele>
        <time>2010-12-12T15:40:01.000Z</time>
      </trkpt>
      <trkpt lat="43.68313" lon="5.58122">
        <ele>337.60000610352</ele>
        <time>2010-12-12T15:40:06.000Z</time>
      </trkpt>
      <trkpt lat="43.68321" lon="5.58102">
        <ele>335.20001220703</ele>
        <time>2010-12-12T15:40:12.000Z</time>
      </trkpt>
      <trkpt lat="43.68327" lon="5.58092">
        <ele>333.60000610352</ele>
        <time>2010-12-12T15:40:14.000Z</time>
      </trkpt>
      <trkpt lat="43.68342" lon="5.58069">
        <ele>330.60000610352</ele>
        <time>2010-12-12T15:40:18.000Z</time>
      </trkpt>
      <trkpt lat="43.68357" lon="5.58055">
        <ele>328.79998779297</ele>
        <time>2010-12-12T15:40:21.000Z</time>
      </trkpt>
      <trkpt lat="43.68373" lon="5.5804">
        <ele>326.79998779297</ele>
        <time>2010-12-12T15:40:24.000Z</time>
      </trkpt>
      <trkpt lat="43.68394" lon="5.58015">
        <ele>323.60000610352</ele>
        <time>2010-12-12T15:40:28.000Z</time>
      </trkpt>
      <trkpt lat="43.68417" lon="5.57985">
        <ele>321.79998779297</ele>
        <time>2010-12-12T15:40:33.000Z</time>
      </trkpt>
      <trkpt lat="43.68451" lon="5.5797">
        <ele>320.20001220703</ele>
        <time>2010-12-12T15:40:40.000Z</time>
      </trkpt>
      <trkpt lat="43.68456" lon="5.57969">
        <ele>319.79998779297</ele>
        <time>2010-12-12T15:40:41.000Z</time>
      </trkpt>
      <trkpt lat="43.68465" lon="5.57964">
        <ele>319.39999389648</ele>
        <time>2010-12-12T15:40:43.000Z</time>
      </trkpt>
      <trkpt lat="43.68479" lon="5.57959">
        <ele>318.39999389648</ele>
        <time>2010-12-12T15:40:46.000Z</time>
      </trkpt>
      <trkpt lat="43.68504" lon="5.57961">
        <ele>316.60000610352</ele>
        <time>2010-12-12T15:40:50.000Z</time>
      </trkpt>
      <trkpt lat="43.68522" lon="5.57951">
        <ele>315.60000610352</ele>
        <time>2010-12-12T15:40:55.000Z</time>
      </trkpt>
      <trkpt lat="43.6853" lon="5.57952">
        <ele>315</ele>
        <time>2010-12-12T15:40:57.000Z</time>
      </trkpt>
      <trkpt lat="43.68545" lon="5.5795">
        <ele>313.79998779297</ele>
        <time>2010-12-12T15:41:00.000Z</time>
      </trkpt>
      <trkpt lat="43.68573" lon="5.5795">
        <ele>311.79998779297</ele>
        <time>2010-12-12T15:41:05.000Z</time>
      </trkpt>
      <trkpt lat="43.68598" lon="5.57945">
        <ele>312.20001220703</ele>
        <time>2010-12-12T15:41:14.000Z</time>
      </trkpt>
      <trkpt lat="43.68599" lon="5.57944">
        <ele>312.20001220703</ele>
        <time>2010-12-12T15:41:17.000Z</time>
      </trkpt>
      <trkpt lat="43.68602" lon="5.57938">
        <ele>312</ele>
        <time>2010-12-12T15:41:23.000Z</time>
      </trkpt>
      <trkpt lat="43.68604" lon="5.57929">
        <ele>311.60000610352</ele>
        <time>2010-12-12T15:41:27.000Z</time>
      </trkpt>
      <trkpt lat="43.68629" lon="5.57906">
        <ele>311.60000610352</ele>
        <time>2010-12-12T15:41:35.000Z</time>
      </trkpt>
      <trkpt lat="43.68633" lon="5.57903">
        <ele>311.60000610352</ele>
        <time>2010-12-12T15:41:36.000Z</time>
      </trkpt>
      <trkpt lat="43.68657" lon="5.57899">
        <ele>312</ele>
        <time>2010-12-12T15:41:41.000Z</time>
      </trkpt>
      <trkpt lat="43.68674" lon="5.57897">
        <ele>312.20001220703</ele>
        <time>2010-12-12T15:41:47.000Z</time>
      </trkpt>
      <trkpt lat="43.68712" lon="5.57892">
        <ele>313</ele>
        <time>2010-12-12T15:41:56.000Z</time>
      </trkpt>
      <trkpt lat="43.68714" lon="5.57891">
        <ele>313</ele>
        <time>2010-12-12T15:41:57.000Z</time>
      </trkpt>
      <trkpt lat="43.68723" lon="5.57886">
        <ele>312.79998779297</ele>
        <time>2010-12-12T15:42:01.000Z</time>
      </trkpt>
      <trkpt lat="43.68745" lon="5.57863">
        <ele>311.79998779297</ele>
        <time>2010-12-12T15:42:12.000Z</time>
      </trkpt>
      <trkpt lat="43.68747" lon="5.57857">
        <ele>311.60000610352</ele>
        <time>2010-12-12T15:42:14.000Z</time>
      </trkpt>
      <trkpt lat="43.68764" lon="5.57836">
        <ele>310</ele>
        <time>2010-12-12T15:42:24.000Z</time>
      </trkpt>
      <trkpt lat="43.68769" lon="5.57835">
        <ele>310</ele>
        <time>2010-12-12T15:42:38.000Z</time>
      </trkpt>
      <trkpt lat="43.68771" lon="5.57823">
        <ele>309.39999389648</ele>
        <time>2010-12-12T15:43:13.000Z</time>
      </trkpt>
      <trkpt lat="43.68792" lon="5.57754">
        <ele>308</ele>
        <time>2010-12-12T15:43:23.000Z</time>
      </trkpt>
      <trkpt lat="43.68811" lon="5.57698">
        <ele>307</ele>
        <time>2010-12-12T15:43:30.000Z</time>
      </trkpt>
      <trkpt lat="43.68826" lon="5.57666">
        <ele>306.39999389648</ele>
        <time>2010-12-12T15:43:34.000Z</time>
      </trkpt>
      <trkpt lat="43.6884" lon="5.57643">
        <ele>304.60000610352</ele>
        <time>2010-12-12T15:43:37.000Z</time>
      </trkpt>
      <trkpt lat="43.68857" lon="5.57613">
        <ele>301.79998779297</ele>
        <time>2010-12-12T15:43:41.000Z</time>
      </trkpt>
      <trkpt lat="43.68869" lon="5.57588">
        <ele>300.20001220703</ele>
        <time>2010-12-12T15:43:44.000Z</time>
      </trkpt>
      <trkpt lat="43.68879" lon="5.57559">
        <ele>297.60000610352</ele>
        <time>2010-12-12T15:43:47.000Z</time>
      </trkpt>
      <trkpt lat="43.68936" lon="5.57475">
        <ele>289.79998779297</ele>
        <time>2010-12-12T15:43:57.000Z</time>
      </trkpt>
      <trkpt lat="43.69012" lon="5.57415">
        <ele>283.60000610352</ele>
        <time>2010-12-12T15:44:06.000Z</time>
      </trkpt>
      <trkpt lat="43.69037" lon="5.57375">
        <ele>282.79998779297</ele>
        <time>2010-12-12T15:44:10.000Z</time>
      </trkpt>
      <trkpt lat="43.69052" lon="5.57347">
        <ele>283</ele>
        <time>2010-12-12T15:44:13.000Z</time>
      </trkpt>
      <trkpt lat="43.69068" lon="5.57318">
        <ele>283.39999389648</ele>
        <time>2010-12-12T15:44:17.000Z</time>
      </trkpt>
      <trkpt lat="43.69083" lon="5.57299">
        <ele>283.60000610352</ele>
        <time>2010-12-12T15:44:21.000Z</time>
      </trkpt>
      <trkpt lat="43.69092" lon="5.57294">
        <ele>284</ele>
        <time>2010-12-12T15:44:23.000Z</time>
      </trkpt>
      <trkpt lat="43.69118" lon="5.57283">
        <ele>284.60000610352</ele>
        <time>2010-12-12T15:44:29.000Z</time>
      </trkpt>
      <trkpt lat="43.69128" lon="5.57275">
        <ele>284.60000610352</ele>
        <time>2010-12-12T15:44:32.000Z</time>
      </trkpt>
      <trkpt lat="43.69182" lon="5.57208">
        <ele>283.60000610352</ele>
        <time>2010-12-12T15:44:47.000Z</time>
      </trkpt>
      <trkpt lat="43.69239" lon="5.57154">
        <ele>286.20001220703</ele>
        <time>2010-12-12T15:45:03.000Z</time>
      </trkpt>
      <trkpt lat="43.69273" lon="5.57122">
        <ele>289.39999389648</ele>
        <time>2010-12-12T15:45:16.000Z</time>
      </trkpt>
      <trkpt lat="43.69315" lon="5.57092">
        <ele>291.39999389648</ele>
        <time>2010-12-12T15:45:31.000Z</time>
      </trkpt>
      <trkpt lat="43.69349" lon="5.57055">
        <ele>293</ele>
        <time>2010-12-12T15:45:45.000Z</time>
      </trkpt>
      <trkpt lat="43.69393" lon="5.57036">
        <ele>294</ele>
        <time>2010-12-12T15:46:01.000Z</time>
      </trkpt>
      <trkpt lat="43.69394" lon="5.57037">
        <ele>294</ele>
        <time>2010-12-12T15:46:19.000Z</time>
      </trkpt>
      <trkpt lat="43.69394" lon="5.57038">
        <ele>294</ele>
        <time>2010-12-12T15:46:20.000Z</time>
      </trkpt>
      <trkpt lat="43.69387" lon="5.57036">
        <ele>293.79998779297</ele>
        <time>2010-12-12T15:46:24.000Z</time>
      </trkpt>
      <trkpt lat="43.69379" lon="5.57033">
        <ele>293.39999389648</ele>
        <time>2010-12-12T15:46:26.000Z</time>
      </trkpt>
      <trkpt lat="43.69366" lon="5.57003">
        <ele>292.60000610352</ele>
        <time>2010-12-12T15:46:32.000Z</time>
      </trkpt>
      <trkpt lat="43.69388" lon="5.56953">
        <ele>289.39999389648</ele>
        <time>2010-12-12T15:46:39.000Z</time>
      </trkpt>
      <trkpt lat="43.69447" lon="5.56874">
        <ele>289.20001220703</ele>
        <time>2010-12-12T15:46:50.000Z</time>
      </trkpt>
      <trkpt lat="43.69473" lon="5.56854">
        <ele>290.60000610352</ele>
        <time>2010-12-12T15:46:55.000Z</time>
      </trkpt>
      <trkpt lat="43.69495" lon="5.56836">
        <ele>291.60000610352</ele>
        <time>2010-12-12T15:47:00.000Z</time>
      </trkpt>
      <trkpt lat="43.69505" lon="5.56824">
        <ele>292.60000610352</ele>
        <time>2010-12-12T15:47:03.000Z</time>
      </trkpt>
      <trkpt lat="43.69502" lon="5.56793">
        <ele>293.39999389648</ele>
        <time>2010-12-12T15:47:09.000Z</time>
      </trkpt>
      <trkpt lat="43.69486" lon="5.56771">
        <ele>293.39999389648</ele>
        <time>2010-12-12T15:47:14.000Z</time>
      </trkpt>
      <trkpt lat="43.69476" lon="5.56749">
        <ele>293.60000610352</ele>
        <time>2010-12-12T15:47:18.000Z</time>
      </trkpt>
      <trkpt lat="43.69463" lon="5.56724">
        <ele>294.20001220703</ele>
        <time>2010-12-12T15:47:23.000Z</time>
      </trkpt>
      <trkpt lat="43.69457" lon="5.56701">
        <ele>295.20001220703</ele>
        <time>2010-12-12T15:47:27.000Z</time>
      </trkpt>
      <trkpt lat="43.69453" lon="5.56664">
        <ele>296.79998779297</ele>
        <time>2010-12-12T15:47:34.000Z</time>
      </trkpt>
      <trkpt lat="43.69454" lon="5.56632">
        <ele>296.60000610352</ele>
        <time>2010-12-12T15:47:40.000Z</time>
      </trkpt>
      <trkpt lat="43.69457" lon="5.56614">
        <ele>296.39999389648</ele>
        <time>2010-12-12T15:47:43.000Z</time>
      </trkpt>
      <trkpt lat="43.69468" lon="5.56489">
        <ele>292.39999389648</ele>
        <time>2010-12-12T15:47:57.000Z</time>
      </trkpt>
      <trkpt lat="43.69473" lon="5.56327">
        <ele>290.39999389648</ele>
        <time>2010-12-12T15:48:11.000Z</time>
      </trkpt>
      <trkpt lat="43.69473" lon="5.56317">
        <ele>290.60000610352</ele>
        <time>2010-12-12T15:48:12.000Z</time>
      </trkpt>
      <trkpt lat="43.69472" lon="5.56297">
        <ele>290.79998779297</ele>
        <time>2010-12-12T15:48:14.000Z</time>
      </trkpt>
      <trkpt lat="43.69468" lon="5.56274">
        <ele>291</ele>
        <time>2010-12-12T15:48:17.000Z</time>
      </trkpt>
      <trkpt lat="43.69464" lon="5.56241">
        <ele>291.20001220703</ele>
        <time>2010-12-12T15:48:21.000Z</time>
      </trkpt>
      <trkpt lat="43.69455" lon="5.56155">
        <ele>290.39999389648</ele>
        <time>2010-12-12T15:48:33.000Z</time>
      </trkpt>
      <trkpt lat="43.6944" lon="5.55989">
        <ele>286.60000610352</ele>
        <time>2010-12-12T15:48:51.000Z</time>
      </trkpt>
      <trkpt lat="43.69421" lon="5.55772">
        <ele>281.79998779297</ele>
        <time>2010-12-12T15:49:15.000Z</time>
      </trkpt>
      <trkpt lat="43.69411" lon="5.55655">
        <ele>277.79998779297</ele>
        <time>2010-12-12T15:49:27.000Z</time>
      </trkpt>
      <trkpt lat="43.69366" lon="5.55554">
        <ele>278.60000610352</ele>
        <time>2010-12-12T15:49:39.000Z</time>
      </trkpt>
      <trkpt lat="43.69342" lon="5.55508">
        <ele>278</ele>
        <time>2010-12-12T15:49:45.000Z</time>
      </trkpt>
      <trkpt lat="43.6932" lon="5.55443">
        <ele>275.20001220703</ele>
        <time>2010-12-12T15:49:53.000Z</time>
      </trkpt>
      <trkpt lat="43.69281" lon="5.55311">
        <ele>272.20001220703</ele>
        <time>2010-12-12T15:50:08.000Z</time>
      </trkpt>
      <trkpt lat="43.69278" lon="5.55302">
        <ele>271.79998779297</ele>
        <time>2010-12-12T15:50:09.000Z</time>
      </trkpt>
      <trkpt lat="43.69224" lon="5.55162">
        <ele>267.20001220703</ele>
        <time>2010-12-12T15:50:26.000Z</time>
      </trkpt>
      <trkpt lat="43.69195" lon="5.55043">
        <ele>266</ele>
        <time>2010-12-12T15:50:40.000Z</time>
      </trkpt>
      <trkpt lat="43.69157" lon="5.54918">
        <ele>263.60000610352</ele>
        <time>2010-12-12T15:50:55.000Z</time>
      </trkpt>
      <trkpt lat="43.69104" lon="5.54802">
        <ele>261.79998779297</ele>
        <time>2010-12-12T15:51:10.000Z</time>
      </trkpt>
      <trkpt lat="43.69067" lon="5.54706">
        <ele>259.79998779297</ele>
        <time>2010-12-12T15:51:22.000Z</time>
      </trkpt>
      <trkpt lat="43.69039" lon="5.54657">
        <ele>259.39999389648</ele>
        <time>2010-12-12T15:51:29.000Z</time>
      </trkpt>
      <trkpt lat="43.68969" lon="5.54577">
        <ele>258.20001220703</ele>
        <time>2010-12-12T15:51:44.000Z</time>
      </trkpt>
      <trkpt lat="43.68897" lon="5.54481">
        <ele>257.39999389648</ele>
        <time>2010-12-12T15:52:01.000Z</time>
      </trkpt>
      <trkpt lat="43.68861" lon="5.54424">
        <ele>256.79998779297</ele>
        <time>2010-12-12T15:52:10.000Z</time>
      </trkpt>
      <trkpt lat="43.68821" lon="5.54303">
        <ele>254.39999389648</ele>
        <time>2010-12-12T15:52:25.000Z</time>
      </trkpt>
      <trkpt lat="43.6878" lon="5.54176">
        <ele>250.39999389648</ele>
        <time>2010-12-12T15:52:40.000Z</time>
      </trkpt>
      <trkpt lat="43.68735" lon="5.54054">
        <ele>248.19999694824</ele>
        <time>2010-12-12T15:52:54.000Z</time>
      </trkpt>
      <trkpt lat="43.68707" lon="5.53984">
        <ele>246.60000610352</ele>
        <time>2010-12-12T15:53:02.000Z</time>
      </trkpt>
      <trkpt lat="43.68687" lon="5.53891">
        <ele>245</ele>
        <time>2010-12-12T15:53:12.000Z</time>
      </trkpt>
      <trkpt lat="43.68654" lon="5.53805">
        <ele>244.39999389648</ele>
        <time>2010-12-12T15:53:22.000Z</time>
      </trkpt>
      <trkpt lat="43.68637" lon="5.53709">
        <ele>242.39999389648</ele>
        <time>2010-12-12T15:53:32.000Z</time>
      </trkpt>
      <trkpt lat="43.68597" lon="5.53603">
        <ele>237.80000305176</ele>
        <time>2010-12-12T15:53:43.000Z</time>
      </trkpt>
      <trkpt lat="43.6857" lon="5.53481">
        <ele>234.80000305176</ele>
        <time>2010-12-12T15:53:57.000Z</time>
      </trkpt>
      <trkpt lat="43.68562" lon="5.53421">
        <ele>234.60000610352</ele>
        <time>2010-12-12T15:54:04.000Z</time>
      </trkpt>
      <trkpt lat="43.68542" lon="5.53366">
        <ele>234</ele>
        <time>2010-12-12T15:54:11.000Z</time>
      </trkpt>
      <trkpt lat="43.68528" lon="5.53347">
        <ele>233.39999389648</ele>
        <time>2010-12-12T15:54:14.000Z</time>
      </trkpt>
      <trkpt lat="43.68514" lon="5.53311">
        <ele>233</ele>
        <time>2010-12-12T15:54:19.000Z</time>
      </trkpt>
      <trkpt lat="43.68503" lon="5.53187">
        <ele>233</ele>
        <time>2010-12-12T15:54:35.000Z</time>
      </trkpt>
      <trkpt lat="43.68502" lon="5.5318">
        <ele>233</ele>
        <time>2010-12-12T15:54:36.000Z</time>
      </trkpt>
      <trkpt lat="43.68512" lon="5.53072">
        <ele>234</ele>
        <time>2010-12-12T15:54:50.000Z</time>
      </trkpt>
      <trkpt lat="43.68513" lon="5.53057">
        <ele>234</ele>
        <time>2010-12-12T15:54:52.000Z</time>
      </trkpt>
      <trkpt lat="43.68519" lon="5.53">
        <ele>233.80000305176</ele>
        <time>2010-12-12T15:54:59.000Z</time>
      </trkpt>
      <trkpt lat="43.68518" lon="5.52965">
        <ele>233.60000610352</ele>
        <time>2010-12-12T15:55:03.000Z</time>
      </trkpt>
      <trkpt lat="43.68491" lon="5.52863">
        <ele>231.60000610352</ele>
        <time>2010-12-12T15:55:14.000Z</time>
      </trkpt>
      <trkpt lat="43.68472" lon="5.52798">
        <ele>230.39999389648</ele>
        <time>2010-12-12T15:55:21.000Z</time>
      </trkpt>
      <trkpt lat="43.68464" lon="5.52691">
        <ele>229.39999389648</ele>
        <time>2010-12-12T15:55:32.000Z</time>
      </trkpt>
      <trkpt lat="43.68452" lon="5.52584">
        <ele>227.39999389648</ele>
        <time>2010-12-12T15:55:44.000Z</time>
      </trkpt>
      <trkpt lat="43.68444" lon="5.5253">
        <ele>226</ele>
        <time>2010-12-12T15:55:50.000Z</time>
      </trkpt>
      <trkpt lat="43.68439" lon="5.52492">
        <ele>225.39999389648</ele>
        <time>2010-12-12T15:55:55.000Z</time>
      </trkpt>
      <trkpt lat="43.68436" lon="5.52472">
        <ele>225.60000610352</ele>
        <time>2010-12-12T15:55:58.000Z</time>
      </trkpt>
      <trkpt lat="43.68427" lon="5.52417">
        <ele>226.39999389648</ele>
        <time>2010-12-12T15:56:06.000Z</time>
      </trkpt>
      <trkpt lat="43.68401" lon="5.52418">
        <ele>224.80000305176</ele>
        <time>2010-12-12T15:56:15.000Z</time>
      </trkpt>
      <trkpt lat="43.6836" lon="5.52424">
        <ele>222</ele>
        <time>2010-12-12T15:56:24.000Z</time>
      </trkpt>
      <trkpt lat="43.68318" lon="5.52446">
        <ele>219.60000610352</ele>
        <time>2010-12-12T15:56:33.000Z</time>
      </trkpt>
      <trkpt lat="43.68308" lon="5.52479">
        <ele>219.39999389648</ele>
        <time>2010-12-12T15:56:39.000Z</time>
      </trkpt>
      <trkpt lat="43.6831" lon="5.52496">
        <ele>219.80000305176</ele>
        <time>2010-12-12T15:56:43.000Z</time>
      </trkpt>
      <trkpt lat="43.683" lon="5.52515">
        <ele>219.80000305176</ele>
        <time>2010-12-12T15:56:48.000Z</time>
      </trkpt>
      <trkpt lat="43.68272" lon="5.5252">
        <ele>218</ele>
        <time>2010-12-12T15:56:55.000Z</time>
      </trkpt>
      <trkpt lat="43.68254" lon="5.52525">
        <ele>217</ele>
        <time>2010-12-12T15:56:59.000Z</time>
      </trkpt>
      <trkpt lat="43.68239" lon="5.52522">
        <ele>215.39999389648</ele>
        <time>2010-12-12T15:57:03.000Z</time>
      </trkpt>
      <trkpt lat="43.68233" lon="5.52508">
        <ele>213.80000305176</ele>
        <time>2010-12-12T15:57:07.000Z</time>
      </trkpt>
      <trkpt lat="43.68234" lon="5.52499">
        <ele>213.39999389648</ele>
        <time>2010-12-12T15:57:09.000Z</time>
      </trkpt>
      <trkpt lat="43.6824" lon="5.52484">
        <ele>214</ele>
        <time>2010-12-12T15:57:12.000Z</time>
      </trkpt>
      <trkpt lat="43.68239" lon="5.52471">
        <ele>213.80000305176</ele>
        <time>2010-12-12T15:57:16.000Z</time>
      </trkpt>
      <trkpt lat="43.68218" lon="5.52439">
        <ele>211.60000610352</ele>
        <time>2010-12-12T15:57:26.000Z</time>
      </trkpt>
      <trkpt lat="43.68215" lon="5.52434">
        <ele>211.19999694824</ele>
        <time>2010-12-12T15:57:28.000Z</time>
      </trkpt>
      <trkpt lat="43.68211" lon="5.52397">
        <ele>211</ele>
        <time>2010-12-12T15:57:35.000Z</time>
      </trkpt>
      <trkpt lat="43.68211" lon="5.52338">
        <ele>212</ele>
        <time>2010-12-12T15:57:47.000Z</time>
      </trkpt>
      <trkpt lat="43.68213" lon="5.52313">
        <ele>212.60000610352</ele>
        <time>2010-12-12T15:57:52.000Z</time>
      </trkpt>
      <trkpt lat="43.68233" lon="5.52247">
        <ele>214.80000305176</ele>
        <time>2010-12-12T15:58:06.000Z</time>
      </trkpt>
      <trkpt lat="43.68252" lon="5.522">
        <ele>216.60000610352</ele>
        <time>2010-12-12T15:58:16.000Z</time>
      </trkpt>
      <trkpt lat="43.6826" lon="5.52175">
        <ele>217.19999694824</ele>
        <time>2010-12-12T15:58:21.000Z</time>
      </trkpt>
      <trkpt lat="43.68277" lon="5.52139">
        <ele>218.19999694824</ele>
        <time>2010-12-12T15:58:28.000Z</time>
      </trkpt>
      <trkpt lat="43.68291" lon="5.52114">
        <ele>219</ele>
        <time>2010-12-12T15:58:33.000Z</time>
      </trkpt>
      <trkpt lat="43.68295" lon="5.52103">
        <ele>219.19999694824</ele>
        <time>2010-12-12T15:58:35.000Z</time>
      </trkpt>
      <trkpt lat="43.68317" lon="5.52058">
        <ele>220.39999389648</ele>
        <time>2010-12-12T15:58:44.000Z</time>
      </trkpt>
      <trkpt lat="43.68323" lon="5.52043">
        <ele>221</ele>
        <time>2010-12-12T15:58:47.000Z</time>
      </trkpt>
      <trkpt lat="43.68331" lon="5.52028">
        <ele>221.39999389648</ele>
        <time>2010-12-12T15:58:50.000Z</time>
      </trkpt>
      <trkpt lat="43.68351" lon="5.51981">
        <ele>222.60000610352</ele>
        <time>2010-12-12T15:58:58.000Z</time>
      </trkpt>
      <trkpt lat="43.68359" lon="5.51965">
        <ele>222.80000305176</ele>
        <time>2010-12-12T15:59:01.000Z</time>
      </trkpt>
      <trkpt lat="43.68394" lon="5.51884">
        <ele>222.60000610352</ele>
        <time>2010-12-12T15:59:14.000Z</time>
      </trkpt>
      <trkpt lat="43.68409" lon="5.51842">
        <ele>222.60000610352</ele>
        <time>2010-12-12T15:59:20.000Z</time>
      </trkpt>
      <trkpt lat="43.68427" lon="5.51782">
        <ele>222.39999389648</ele>
        <time>2010-12-12T15:59:28.000Z</time>
      </trkpt>
      <trkpt lat="43.68439" lon="5.51744">
        <ele>222.80000305176</ele>
        <time>2010-12-12T15:59:33.000Z</time>
      </trkpt>
      <trkpt lat="43.68454" lon="5.51688">
        <ele>223.60000610352</ele>
        <time>2010-12-12T15:59:41.000Z</time>
      </trkpt>
      <trkpt lat="43.68481" lon="5.51609">
        <ele>224.80000305176</ele>
        <time>2010-12-12T15:59:54.000Z</time>
      </trkpt>
      <trkpt lat="43.68521" lon="5.51518">
        <ele>222.80000305176</ele>
        <time>2010-12-12T16:00:07.000Z</time>
      </trkpt>
      <trkpt lat="43.68532" lon="5.51491">
        <ele>222.19999694824</ele>
        <time>2010-12-12T16:00:11.000Z</time>
      </trkpt>
      <trkpt lat="43.68541" lon="5.51468">
        <ele>222.39999389648</ele>
        <time>2010-12-12T16:00:14.000Z</time>
      </trkpt>
      <trkpt lat="43.68548" lon="5.51451">
        <ele>222.39999389648</ele>
        <time>2010-12-12T16:00:16.000Z</time>
      </trkpt>
      <trkpt lat="43.68599" lon="5.5134">
        <ele>221.60000610352</ele>
        <time>2010-12-12T16:00:32.000Z</time>
      </trkpt>
      <trkpt lat="43.68628" lon="5.51277">
        <ele>221</ele>
        <time>2010-12-12T16:00:42.000Z</time>
      </trkpt>
      <trkpt lat="43.68655" lon="5.51217">
        <ele>220.39999389648</ele>
        <time>2010-12-12T16:00:50.000Z</time>
      </trkpt>
      <trkpt lat="43.68699" lon="5.51134">
        <ele>218.80000305176</ele>
        <time>2010-12-12T16:01:01.000Z</time>
      </trkpt>
      <trkpt lat="43.68712" lon="5.51116">
        <ele>218.80000305176</ele>
        <time>2010-12-12T16:01:04.000Z</time>
      </trkpt>
      <trkpt lat="43.68761" lon="5.51047">
        <ele>218</ele>
        <time>2010-12-12T16:01:15.000Z</time>
      </trkpt>
      <trkpt lat="43.68799" lon="5.50989">
        <ele>217</ele>
        <time>2010-12-12T16:01:24.000Z</time>
      </trkpt>
      <trkpt lat="43.68835" lon="5.50929">
        <ele>216.19999694824</ele>
        <time>2010-12-12T16:01:34.000Z</time>
      </trkpt>
      <trkpt lat="43.68849" lon="5.50906">
        <ele>216.19999694824</ele>
        <time>2010-12-12T16:01:38.000Z</time>
      </trkpt>
      <trkpt lat="43.68862" lon="5.50885">
        <ele>216.19999694824</ele>
        <time>2010-12-12T16:01:42.000Z</time>
      </trkpt>
      <trkpt lat="43.68868" lon="5.50875">
        <ele>216.19999694824</ele>
        <time>2010-12-12T16:01:44.000Z</time>
      </trkpt>
      <trkpt lat="43.6886" lon="5.50849">
        <ele>215.80000305176</ele>
        <time>2010-12-12T16:01:49.000Z</time>
      </trkpt>
      <trkpt lat="43.68819" lon="5.50841">
        <ele>214.80000305176</ele>
        <time>2010-12-12T16:01:57.000Z</time>
      </trkpt>
      <trkpt lat="43.68765" lon="5.50839">
        <ele>214.19999694824</ele>
        <time>2010-12-12T16:02:07.000Z</time>
      </trkpt>
      <trkpt lat="43.68749" lon="5.50837">
        <ele>214</ele>
        <time>2010-12-12T16:02:10.000Z</time>
      </trkpt>
      <trkpt lat="43.68729" lon="5.50825">
        <ele>213.80000305176</ele>
        <time>2010-12-12T16:02:14.000Z</time>
      </trkpt>
      <trkpt lat="43.68693" lon="5.50793">
        <ele>212.39999389648</ele>
        <time>2010-12-12T16:02:21.000Z</time>
      </trkpt>
      <trkpt lat="43.68678" lon="5.5077">
        <ele>211.19999694824</ele>
        <time>2010-12-12T16:02:25.000Z</time>
      </trkpt>
      <trkpt lat="43.68671" lon="5.50756">
        <ele>210.39999389648</ele>
        <time>2010-12-12T16:02:27.000Z</time>
      </trkpt>
      <trkpt lat="43.68665" lon="5.50743">
        <ele>209.39999389648</ele>
        <time>2010-12-12T16:02:29.000Z</time>
      </trkpt>
      <trkpt lat="43.68649" lon="5.50745">
        <ele>206.80000305176</ele>
        <time>2010-12-12T16:02:35.000Z</time>
      </trkpt>
      <trkpt lat="43.68645" lon="5.50761">
        <ele>206.80000305176</ele>
        <time>2010-12-12T16:02:38.000Z</time>
      </trkpt>
      <trkpt lat="43.68638" lon="5.50786">
        <ele>207</ele>
        <time>2010-12-12T16:02:42.000Z</time>
      </trkpt>
      <trkpt lat="43.6863" lon="5.50822">
        <ele>208</ele>
        <time>2010-12-12T16:02:47.000Z</time>
      </trkpt>
      <trkpt lat="43.6862" lon="5.50855">
        <ele>208</ele>
        <time>2010-12-12T16:02:52.000Z</time>
      </trkpt>
      <trkpt lat="43.68602" lon="5.50903">
        <ele>208.39999389648</ele>
        <time>2010-12-12T16:02:59.000Z</time>
      </trkpt>
      <trkpt lat="43.68582" lon="5.50947">
        <ele>208.80000305176</ele>
        <time>2010-12-12T16:03:05.000Z</time>
      </trkpt>
      <trkpt lat="43.68574" lon="5.5097">
        <ele>208.60000610352</ele>
        <time>2010-12-12T16:03:08.000Z</time>
      </trkpt>
      <trkpt lat="43.68567" lon="5.50981">
        <ele>208.19999694824</ele>
        <time>2010-12-12T16:03:10.000Z</time>
      </trkpt>
      <trkpt lat="43.68561" lon="5.51003">
        <ele>208.19999694824</ele>
        <time>2010-12-12T16:03:13.000Z</time>
      </trkpt>
      <trkpt lat="43.68555" lon="5.51019">
        <ele>207.80000305176</ele>
        <time>2010-12-12T16:03:15.000Z</time>
      </trkpt>
      <trkpt lat="43.68546" lon="5.51057">
        <ele>207</ele>
        <time>2010-12-12T16:03:21.000Z</time>
      </trkpt>
      <trkpt lat="43.68536" lon="5.51073">
        <ele>206.19999694824</ele>
        <time>2010-12-12T16:03:29.000Z</time>
      </trkpt>
      <trkpt lat="43.68529" lon="5.51086">
        <ele>205.60000610352</ele>
        <time>2010-12-12T16:04:10.000Z</time>
      </trkpt>
      <trkpt lat="43.68525" lon="5.51099">
        <ele>205.60000610352</ele>
        <time>2010-12-12T16:04:12.000Z</time>
      </trkpt>
      <trkpt lat="43.68509" lon="5.51116">
        <ele>204.39999389648</ele>
        <time>2010-12-12T16:04:17.000Z</time>
      </trkpt>
      <trkpt lat="43.68505" lon="5.51113">
        <ele>203.80000305176</ele>
        <time>2010-12-12T16:04:23.000Z</time>
      </trkpt>
      <trkpt lat="43.68505" lon="5.51111">
        <ele>203.80000305176</ele>
        <time>2010-12-12T16:04:25.000Z</time>
      </trkpt>
      <trkpt lat="43.68506" lon="5.51095">
        <ele>203.19999694824</ele>
        <time>2010-12-12T16:04:28.000Z</time>
      </trkpt>
      <trkpt lat="43.68505" lon="5.51097">
        <ele>203.19999694824</ele>
        <time>2010-12-12T16:04:33.000Z</time>
      </trkpt>
      <trkpt lat="43.68504" lon="5.51114">
        <ele>203.80000305176</ele>
        <time>2010-12-12T16:04:41.000Z</time>
      </trkpt>
      <trkpt lat="43.68508" lon="5.51126">
        <ele>204.80000305176</ele>
        <time>2010-12-12T16:04:48.000Z</time>
      </trkpt>
      <trkpt lat="43.68508" lon="5.51122">
        <ele>204.60000610352</ele>
        <time>2010-12-12T16:04:50.000Z</time>
      </trkpt>
      <trkpt lat="43.68517" lon="5.51106">
        <ele>204.80000305176</ele>
        <time>2010-12-12T16:04:55.000Z</time>
      </trkpt>
      <trkpt lat="43.68518" lon="5.51076">
        <ele>204</ele>
        <time>2010-12-12T16:05:05.000Z</time>
      </trkpt>
      <trkpt lat="43.68514" lon="5.51072">
        <ele>203.39999389648</ele>
        <time>2010-12-12T16:05:09.000Z</time>
      </trkpt>
      <trkpt lat="43.68509" lon="5.51078">
        <ele>203</ele>
        <time>2010-12-12T16:05:14.000Z</time>
      </trkpt>
      <trkpt lat="43.68514" lon="5.51079">
        <ele>203.60000610352</ele>
        <time>2010-12-12T16:05:25.000Z</time>
      </trkpt>
      <trkpt lat="43.68514" lon="5.51075">
        <ele>203.39999389648</ele>
        <time>2010-12-12T16:05:54.000Z</time>
      </trkpt>
      <trkpt lat="43.68514" lon="5.51074">
        <ele>203.39999389648</ele>
        <time>2010-12-12T16:05:55.000Z</time>
      </trkpt>
    </trkseg>
  </trk>
</gpx>